Time,TemperatureF,DewpointF,PressureIn,WindDirection,WindDirectionDegrees,WindSpeedMPH,WindSpeedGustMPH,Humidity,HourlyPrecipIn,Conditions,Clouds,dailyrainin,SoftwareType,DateUTC
2013-10-25 00:01:00,29.5,20.6,29.09,NNW,338,1.2,0.0,69,0.00,RA,,0.00,WeatherDisplay:10.37,2013-10-25 05:01:00,
2013-10-25 00:02:00,29.5,20.6,29.09,NNW,338,0.0,0.0,69,0.00,RA,,0.00,WeatherDisplay:10.37,2013-10-25 05:02:00,
2013-10-25 00:03:00,29.3,20.4,29.09,NNW,338,1.2,1.2,69,0.00,RA,,0.00,WeatherDisplay:10.37,2013-10-25 05:03:00,
2013-10-25 00:04:00,29.1,20.2,29.09,NNW,338,1.2,1.2,69,0.00,RA,,0.00,WeatherDisplay:10.37,2013-10-25 05:04:00,
2013-10-25 00:06:00,29.1,20.2,29.09,WSW,248,2.6,2.6,69,0.00,RA,,0.00,WeatherDisplay:10.37,2013-10-25 05:06:00,
2013-10-25 00:07:00,29.1,20.2,29.09,NW,315,2.6,2.6,69,0.00,RA,,0.00,WeatherDisplay:10.37,2013-10-25 05:07:00,
2013-10-25 00:08:00,29.1,20.2,29.09,WNW,292,2.3,2.3,69,0.00,RA,,0.00,WeatherDisplay:10.37,2013-10-25 05:08:00,
2013-10-25 00:09:00,29.1,20.2,29.09,WNW,292,2.4,2.4,69,0.00,RA,,0.00,WeatherDisplay:10.37,2013-10-25 05:09:00,
2013-10-25 00:11:00,29.1,20.6,29.09,West,270,1.2,0.0,70,0.00,CLR,,0.00,WeatherDisplay:10.37,2013-10-25 05:11:00,
2013-10-25 00:12:00,29.1,20.6,29.09,West,270,2.3,2.3,70,0.00,CLR,,0.00,WeatherDisplay:10.37,2013-10-25 05:12:00,
2013-10-25 00:13:00,29.1,20.9,29.09,West,270,2.3,0.0,71,0.00,CLR,,0.00,WeatherDisplay:10.37,2013-10-25 05:13:00,
2013-10-25 00:14:00,29.1,20.9,29.09,West,270,0.0,0.0,71,0.00,CLR,,0.00,WeatherDisplay:10.37,2013-10-25 05:14:00,
2013-10-25 00:16:00,28.9,20.7,29.09,WNW,292,0.0,0.0,71,0.00,CLR,,0.00,WeatherDisplay:10.37,2013-10-25 05:16:00,
2013-10-25 00:17:00,28.9,20.7,29.09,West,270,2.3,2.3,71,0.00,CLR,,0.00,WeatherDisplay:10.37,2013-10-25 05:17:00,
2013-10-25 00:18:00,28.9,20.7,29.09,SW,225,2.3,2.3,71,0.00,CLR,,0.00,WeatherDisplay:10.37,2013-10-25 05:18:00,
2013-10-25 00:19:00,28.9,20.7,29.09,NW,315,1.2,1.4,71,0.00,CLR,,0.00,WeatherDisplay:10.37,2013-10-25 05:19:00,
2013-10-25 00:20:00,28.9,20.7,29.09,SW,225,3.5,0.0,71,0.00,CLR,,0.00,WeatherDisplay:10.37,2013-10-25 05:20:00,
2013-10-25 00:21:00,28.9,20.7,29.09,WSW,248,3.5,0.0,71,0.00,CLR,,0.00,WeatherDisplay:10.37,2013-10-25 05:21:00,
2013-10-25 00:22:00,28.9,20.7,29.09,WNW,292,2.0,2.0,71,0.00,CLR,,0.00,WeatherDisplay:10.37,2013-10-25 05:22:00,
2013-10-25 00:23:00,28.9,21.0,29.09,WNW,292,2.3,2.3,72,0.00,CLR,,0.00,WeatherDisplay:10.37,2013-10-25 05:23:00,
2013-10-25 00:24:00,28.9,21.0,29.09,West,270,4.6,0.0,72,0.00,CLR,,0.00,WeatherDisplay:10.37,2013-10-25 05:24:00,
2013-10-25 00:25:00,28.9,21.0,29.09,NNW,338,2.0,0.0,72,0.00,CLR,,0.00,WeatherDisplay:10.37,2013-10-25 05:25:00,
2013-10-25 00:26:00,28.8,20.9,29.09,NNW,338,2.3,2.3,72,0.00,CLR,,0.00,WeatherDisplay:10.37,2013-10-25 05:26:00,
2013-10-25 00:27:00,28.8,20.9,29.09,NNW,338,1.2,1.2,72,0.00,CLR,,0.00,WeatherDisplay:10.37,2013-10-25 05:27:00,
2013-10-25 00:28:00,28.8,20.9,29.09,NNW,338,1.2,0.0,72,0.00,CLR,,0.00,WeatherDisplay:10.37,2013-10-25 05:28:00,
2013-10-25 00:29:00,28.6,20.7,29.09,NNW,338,0.0,0.0,72,0.00,CLR,,0.00,WeatherDisplay:10.37,2013-10-25 05:29:00,
2013-10-25 00:31:00,28.6,20.7,29.09,NNW,338,1.2,1.2,72,0.00,CLR,,0.00,WeatherDisplay:10.37,2013-10-25 05:31:00,
2013-10-25 00:32:00,28.6,20.7,29.09,WNW,292,1.4,1.4,72,0.00,CLR,,0.00,WeatherDisplay:10.37,2013-10-25 05:32:00,
2013-10-25 00:33:00,28.4,20.5,29.09,WNW,292,1.2,1.2,72,0.00,CLR,,0.00,WeatherDisplay:10.37,2013-10-25 05:33:00,
2013-10-25 00:34:00,28.4,20.5,29.09,WNW,292,1.2,1.2,72,0.00,CLR,,0.00,WeatherDisplay:10.37,2013-10-25 05:34:00,
2013-10-25 00:36:00,28.2,20.3,29.09,WNW,292,2.4,2.4,72,0.00,CLR,,0.00,WeatherDisplay:10.37,2013-10-25 05:36:00,
2013-10-25 00:38:00,28.2,20.3,29.09,West,270,2.3,2.3,72,0.00,CLR,,0.00,WeatherDisplay:10.37,2013-10-25 05:38:00,
2013-10-25 00:39:00,28.2,20.3,29.09,WNW,292,2.3,2.3,72,0.00,CLR,,0.00,WeatherDisplay:10.37,2013-10-25 05:39:00,
2013-10-25 00:41:00,28.2,20.7,29.09,West,270,0.0,0.0,73,0.00,CLR,,0.00,WeatherDisplay:10.37,2013-10-25 05:41:00,
2013-10-25 00:42:00,28.2,20.7,29.09,West,270,0.0,0.0,73,0.00,CLR,,0.00,WeatherDisplay:10.37,2013-10-25 05:42:00,
2013-10-25 00:43:00,28.2,20.7,29.09,West,270,0.0,0.0,73,0.00,CLR,,0.00,WeatherDisplay:10.37,2013-10-25 05:43:00,
2013-10-25 00:44:00,28.0,20.5,29.09,West,270,0.0,0.0,73,0.00,CLR,,0.00,WeatherDisplay:10.37,2013-10-25 05:44:00,
2013-10-25 00:47:00,28.0,20.5,29.09,West,270,1.6,1.6,73,0.00,CLR,,0.00,WeatherDisplay:10.37,2013-10-25 05:47:00,
2013-10-25 00:48:00,28.0,20.5,29.09,West,270,2.3,2.3,73,0.00,CLR,,0.00,WeatherDisplay:10.37,2013-10-25 05:48:00,
2013-10-25 00:49:00,28.0,20.5,29.09,West,270,1.2,0.0,73,0.00,CLR,,0.00,WeatherDisplay:10.37,2013-10-25 05:49:00,
2013-10-25 00:50:00,28.0,20.5,29.09,West,270,1.2,0.0,73,0.00,CLR,,0.00,WeatherDisplay:10.37,2013-10-25 05:50:00,
2013-10-25 00:52:00,27.9,20.3,29.09,West,270,0.0,0.0,73,0.00,CLR,,0.00,WeatherDisplay:10.37,2013-10-25 05:52:00,
2013-10-25 00:53:00,27.9,20.3,29.09,West,270,1.2,1.2,73,0.00,CLR,,0.00,WeatherDisplay:10.37,2013-10-25 05:53:00,
2013-10-25 00:54:00,27.9,20.3,29.09,West,270,1.2,1.2,73,0.00,CLR,,0.00,WeatherDisplay:10.37,2013-10-25 05:54:00,
2013-10-25 00:55:00,28.0,20.8,29.09,West,270,0.0,0.0,74,0.00,CLR,,0.00,WeatherDisplay:10.37,2013-10-25 05:55:00,
2013-10-25 00:57:00,27.9,20.6,29.09,WSW,248,1.2,1.4,74,0.00,CLR,,0.00,WeatherDisplay:10.37,2013-10-25 05:57:00,
2013-10-25 00:59:00,27.9,20.3,29.09,West,270,2.3,2.3,73,0.00,CLR,,0.00,WeatherDisplay:10.37,2013-10-25 05:59:00,
2013-10-25 01:00:00,27.9,20.3,29.09,WSW,248,2.3,2.3,73,0.00,CLR,,0.00,WeatherDisplay:10.37,2013-10-25 06:00:00,
2013-10-25 01:01:00,27.9,20.3,29.09,WSW,248,2.3,2.3,73,0.00,CLR,,0.00,WeatherDisplay:10.37,2013-10-25 06:01:00,
2013-10-25 01:03:00,27.9,20.6,29.09,WSW,248,2.3,2.3,74,0.00,CLR,,0.00,WeatherDisplay:10.37,2013-10-25 06:03:00,
2013-10-25 01:04:00,28.0,21.1,29.09,West,270,2.3,2.3,75,0.00,CLR,,0.00,WeatherDisplay:10.37,2013-10-25 06:04:00,
2013-10-25 01:05:00,28.0,21.1,29.09,WSW,248,2.3,2.3,75,0.00,CLR,,0.00,WeatherDisplay:10.37,2013-10-25 06:05:00,
2013-10-25 01:06:00,28.0,21.1,29.09,West,270,2.3,2.3,75,0.00,CLR,,0.00,WeatherDisplay:10.37,2013-10-25 06:06:00,
2013-10-25 01:08:00,28.0,21.1,29.09,West,270,0.0,0.0,75,0.00,CLR,,0.00,WeatherDisplay:10.37,2013-10-25 06:08:00,
2013-10-25 01:09:00,28.0,21.1,29.12,West,270,2.0,2.0,75,0.00,CLR,,0.00,WeatherDisplay:10.37,2013-10-25 06:09:00,
2013-10-25 01:10:00,27.9,21.0,29.12,WSW,248,2.3,2.3,75,0.00,CLR,,0.00,WeatherDisplay:10.37,2013-10-25 06:10:00,
2013-10-25 01:11:00,27.9,21.0,29.12,WSW,248,2.3,2.3,75,0.00,CLR,,0.00,WeatherDisplay:10.37,2013-10-25 06:11:00,
2013-10-25 01:12:00,27.9,21.0,29.12,WSW,248,1.2,0.0,75,0.00,CLR,,0.00,WeatherDisplay:10.37,2013-10-25 06:12:00,
2013-10-25 01:13:00,27.9,21.0,29.12,WSW,248,0.0,0.0,75,0.00,CLR,,0.00,WeatherDisplay:10.37,2013-10-25 06:13:00,
2013-10-25 01:15:00,27.7,20.8,29.12,WNW,292,1.6,1.6,75,0.00,CLR,,0.00,WeatherDisplay:10.37,2013-10-25 06:15:00,
2013-10-25 01:16:00,27.7,20.8,29.12,West,270,1.2,1.4,75,0.00,CLR,,0.00,WeatherDisplay:10.37,2013-10-25 06:16:00,
2013-10-25 01:17:00,27.7,20.8,29.12,West,270,0.0,0.0,75,0.00,CLR,,0.00,WeatherDisplay:10.37,2013-10-25 06:17:00,
2013-10-25 01:19:00,27.5,20.6,29.12,West,270,0.0,0.0,75,0.00,CLR,,0.00,WeatherDisplay:10.37,2013-10-25 06:19:00,
2013-10-25 01:20:00,27.3,20.4,29.12,WSW,248,0.0,0.0,75,0.00,CLR,,0.00,WeatherDisplay:10.37,2013-10-25 06:20:00,
2013-10-25 01:21:00,27.3,20.4,29.12,SW,225,2.3,2.3,75,0.00,CLR,,0.00,WeatherDisplay:10.37,2013-10-25 06:21:00,
2013-10-25 01:22:00,27.3,20.4,29.12,SW,225,2.3,2.3,75,0.00,CLR,,0.00,WeatherDisplay:10.37,2013-10-25 06:22:00,
2013-10-25 01:24:00,27.3,20.4,29.12,West,270,2.3,0.0,75,0.00,CLR,,0.00,WeatherDisplay:10.37,2013-10-25 06:24:00,
2013-10-25 01:25:00,27.3,20.4,29.09,West,270,1.2,1.2,75,0.00,CLR,,0.00,WeatherDisplay:10.37,2013-10-25 06:25:00,
2013-10-25 01:27:00,27.3,20.4,29.09,WSW,248,1.4,1.4,75,0.00,CLR,,0.00,WeatherDisplay:10.37,2013-10-25 06:27:00,
2013-10-25 01:29:00,27.1,20.3,29.09,WSW,248,1.2,0.0,75,0.00,CLR,,0.00,WeatherDisplay:10.37,2013-10-25 06:29:00,
2013-10-25 01:30:00,27.1,20.3,29.09,West,270,1.2,0.0,75,0.00,CLR,,0.00,WeatherDisplay:10.37,2013-10-25 06:30:00,
2013-10-25 01:31:00,27.1,20.6,29.09,West,270,1.2,0.0,76,0.00,CLR,,0.00,WeatherDisplay:10.37,2013-10-25 06:31:00,
2013-10-25 01:32:00,27.1,20.6,29.09,West,270,0.0,0.0,76,0.00,CLR,,0.00,WeatherDisplay:10.37,2013-10-25 06:32:00,
2013-10-25 01:34:00,27.1,20.6,29.09,NNW,338,1.4,1.4,76,0.00,CLR,,0.00,WeatherDisplay:10.37,2013-10-25 06:34:00,
2013-10-25 01:36:00,27.1,20.6,29.09,NNW,338,1.2,0.0,76,0.00,CLR,,0.00,WeatherDisplay:10.37,2013-10-25 06:36:00,
2013-10-25 01:37:00,27.1,20.6,29.09,NW,315,2.0,2.0,76,0.00,CLR,,0.00,WeatherDisplay:10.37,2013-10-25 06:37:00,
2013-10-25 01:38:00,27.1,20.6,29.09,WNW,292,2.3,2.3,76,0.00,CLR,,0.00,WeatherDisplay:10.37,2013-10-25 06:38:00,
2013-10-25 01:39:00,27.1,20.6,29.09,West,270,2.3,2.3,76,0.00,CLR,,0.00,WeatherDisplay:10.37,2013-10-25 06:39:00,
2013-10-25 01:41:00,27.1,20.6,29.09,WNW,292,1.2,1.2,76,0.00,CLR,,0.00,WeatherDisplay:10.37,2013-10-25 06:41:00,
2013-10-25 01:42:00,27.0,20.4,29.09,West,270,2.0,0.0,76,0.00,CLR,,0.00,WeatherDisplay:10.37,2013-10-25 06:42:00,
2013-10-25 01:43:00,27.0,20.4,29.09,West,270,1.2,0.0,76,0.00,CLR,,0.00,WeatherDisplay:10.37,2013-10-25 06:43:00,
2013-10-25 01:45:00,27.0,20.4,29.09,West,278,1.0,2.0,76,0.00,CLR,,0.00,WeatherDisplay:10.37,2013-10-25 06:45:00,
2013-10-25 01:46:00,27.0,20.7,29.09,West,270,0.0,0.0,77,0.00,CLR,,0.00,WeatherDisplay:10.37,2013-10-25 06:46:00,
2013-10-25 01:47:00,27.0,20.7,29.09,WNW,292,0.0,0.0,77,0.00,CLR,,0.00,WeatherDisplay:10.37,2013-10-25 06:47:00,
2013-10-25 01:48:00,26.8,20.5,29.09,West,270,2.0,2.0,77,0.00,CLR,,0.00,WeatherDisplay:10.37,2013-10-25 06:48:00,
2013-10-25 01:50:00,26.8,20.5,29.09,West,270,2.3,2.3,77,0.00,CLR,,0.00,WeatherDisplay:10.37,2013-10-25 06:50:00,
2013-10-25 01:51:00,26.8,20.5,29.09,WSW,248,2.3,2.3,77,0.00,CLR,,0.00,WeatherDisplay:10.37,2013-10-25 06:51:00,
2013-10-25 01:53:00,26.8,20.5,29.09,West,270,1.2,0.0,77,0.00,CLR,,0.00,WeatherDisplay:10.37,2013-10-25 06:53:00,
2013-10-25 01:55:00,26.8,20.5,29.09,WNW,292,2.3,2.3,77,0.00,CLR,,0.00,WeatherDisplay:10.37,2013-10-25 06:55:00,
2013-10-25 01:56:00,26.8,20.5,29.09,WNW,292,1.2,0.0,77,0.00,CLR,,0.00,WeatherDisplay:10.37,2013-10-25 06:56:00,
2013-10-25 01:58:00,26.6,20.7,29.09,WNW,292,0.0,0.0,78,0.00,CLR,,0.00,WeatherDisplay:10.37,2013-10-25 06:58:00,
2013-10-25 01:59:00,26.6,20.7,29.09,WNW,292,0.0,0.0,78,0.00,CLR,,0.00,WeatherDisplay:10.37,2013-10-25 06:59:00,
2013-10-25 02:01:00,26.4,20.2,29.09,NW,315,0.0,0.0,77,0.00,CLR,,0.00,WeatherDisplay:10.37,2013-10-25 07:01:00,
2013-10-25 02:03:00,26.2,20.0,29.09,NNW,338,0.0,0.0,77,0.00,CLR,,0.00,WeatherDisplay:10.37,2013-10-25 07:03:00,
2013-10-25 02:04:00,26.2,20.0,29.09,NNW,338,0.0,0.0,77,0.00,CLR,,0.00,WeatherDisplay:10.37,2013-10-25 07:04:00,
2013-10-25 02:06:00,26.1,20.1,29.09,NNW,338,0.0,0.0,78,0.00,CLR,,0.00,WeatherDisplay:10.37,2013-10-25 07:06:00,
2013-10-25 02:08:00,25.9,20.0,29.09,NNW,338,1.4,1.4,78,0.00,CLR,,0.00,WeatherDisplay:10.37,2013-10-25 07:08:00,
2013-10-25 02:09:00,25.9,20.0,29.09,NNW,338,1.4,1.4,78,0.00,CLR,,0.00,WeatherDisplay:10.37,2013-10-25 07:09:00,
2013-10-25 02:11:00,25.9,20.0,29.12,WNW,292,2.3,2.3,78,0.00,CLR,,0.00,WeatherDisplay:10.37,2013-10-25 07:11:00,
2013-10-25 02:12:00,25.9,20.0,29.12,WNW,292,2.3,2.3,78,0.00,CLR,,0.00,WeatherDisplay:10.37,2013-10-25 07:12:00,
2013-10-25 02:14:00,26.1,20.1,29.12,WNW,292,1.2,1.2,78,0.00,CLR,,0.00,WeatherDisplay:10.37,2013-10-25 07:14:00,
2013-10-25 02:15:00,26.1,20.1,29.12,WNW,292,1.4,1.4,78,0.00,CLR,,0.00,WeatherDisplay:10.37,2013-10-25 07:15:00,
2013-10-25 02:16:00,26.1,20.1,29.12,WSW,248,1.2,0.0,78,0.00,CLR,,0.00,WeatherDisplay:10.37,2013-10-25 07:16:00,
2013-10-25 02:17:00,26.1,20.1,29.12,West,270,1.2,0.0,78,0.00,CLR,,0.00,WeatherDisplay:10.37,2013-10-25 07:17:00,
2013-10-25 02:19:00,25.9,20.0,29.12,West,270,0.0,0.0,78,0.00,CLR,,0.00,WeatherDisplay:10.37,2013-10-25 07:19:00,
2013-10-25 02:20:00,25.9,20.0,29.12,West,270,0.0,0.0,78,0.00,CLR,,0.00,WeatherDisplay:10.37,2013-10-25 07:20:00,
2013-10-25 02:21:00,25.7,19.8,29.12,West,270,0.0,0.0,78,0.00,CLR,,0.00,WeatherDisplay:10.37,2013-10-25 07:21:00,
2013-10-25 02:22:00,25.7,20.1,29.12,West,270,0.0,0.0,79,0.00,CLR,,0.00,WeatherDisplay:10.37,2013-10-25 07:22:00,
2013-10-25 02:24:00,25.7,20.1,29.12,West,270,0.0,0.0,79,0.00,CLR,,0.00,WeatherDisplay:10.37,2013-10-25 07:24:00,
2013-10-25 02:25:00,25.7,20.1,29.12,West,270,0.0,0.0,79,0.00,CLR,,0.00,WeatherDisplay:10.37,2013-10-25 07:25:00,
2013-10-25 02:27:00,25.9,20.3,29.12,West,270,0.0,0.0,79,0.00,CLR,,0.00,WeatherDisplay:10.37,2013-10-25 07:27:00,
2013-10-25 02:29:00,26.1,20.4,29.12,WNW,292,2.3,2.3,79,0.00,CLR,,0.00,WeatherDisplay:10.37,2013-10-25 07:29:00,
2013-10-25 02:30:00,26.2,20.6,29.12,NW,315,2.3,2.3,79,0.00,CLR,,0.00,WeatherDisplay:10.37,2013-10-25 07:30:00,
2013-10-25 02:31:00,26.2,20.6,29.12,NW,315,1.6,1.6,79,0.00,CLR,,0.00,WeatherDisplay:10.37,2013-10-25 07:31:00,
2013-10-25 02:32:00,26.4,20.8,29.12,NW,315,1.2,1.4,79,0.00,CLR,,0.00,WeatherDisplay:10.37,2013-10-25 07:32:00,
2013-10-25 02:35:00,26.6,21.3,29.12,West,270,0.0,0.0,80,0.00,CLR,,0.00,WeatherDisplay:10.37,2013-10-25 07:35:00,
2013-10-25 02:36:00,26.6,21.3,29.12,West,270,0.0,0.0,80,0.00,CLR,,0.00,WeatherDisplay:10.37,2013-10-25 07:36:00,
2013-10-25 02:37:00,26.6,21.3,29.12,WSW,248,2.4,2.4,80,0.00,CLR,,0.00,WeatherDisplay:10.37,2013-10-25 07:37:00,
2013-10-25 02:38:00,26.8,21.1,29.12,WSW,248,2.0,2.0,79,0.00,CLR,,0.00,WeatherDisplay:10.37,2013-10-25 07:38:00,
2013-10-25 02:41:00,27.0,21.6,29.12,West,270,0.0,0.0,80,0.00,CLR,,0.00,WeatherDisplay:10.37,2013-10-25 07:41:00,
2013-10-25 02:42:00,27.1,21.8,29.12,WNW,292,1.4,0.0,80,0.00,CLR,,0.00,WeatherDisplay:10.37,2013-10-25 07:42:00,
2013-10-25 02:43:00,27.1,21.8,29.12,WNW,292,0.9,0.0,80,0.00,CLR,,0.00,WeatherDisplay:10.37,2013-10-25 07:43:00,
2013-10-25 02:46:00,27.1,21.8,29.12,WNW,292,0.0,0.0,80,0.00,CLR,,0.00,WeatherDisplay:10.37,2013-10-25 07:46:00,
2013-10-25 02:47:00,27.3,22.0,29.12,WNW,292,0.0,0.0,80,0.00,CLR,,0.00,WeatherDisplay:10.37,2013-10-25 07:47:00,
2013-10-25 02:48:00,27.3,22.0,29.12,WNW,292,0.0,0.0,80,0.00,CLR,,0.00,WeatherDisplay:10.37,2013-10-25 07:48:00,
2013-10-25 02:51:00,27.5,22.1,29.12,WNW,292,1.2,1.2,80,0.00,CLR,,0.00,WeatherDisplay:10.37,2013-10-25 07:51:00,
2013-10-25 02:52:00,27.5,22.1,29.12,WNW,292,1.2,1.2,80,0.00,CLR,,0.00,WeatherDisplay:10.37,2013-10-25 07:52:00,
2013-10-25 02:53:00,27.7,22.3,29.12,WNW,292,2.3,0.0,80,0.00,CLR,,0.00,WeatherDisplay:10.37,2013-10-25 07:53:00,
2013-10-25 02:56:00,27.7,22.3,29.12,West,270,1.2,0.0,80,0.00,CLR,,0.00,WeatherDisplay:10.37,2013-10-25 07:56:00,
2013-10-25 02:57:00,27.7,22.3,29.12,West,270,0.0,0.0,80,0.00,CLR,,0.00,WeatherDisplay:10.37,2013-10-25 07:57:00,
2013-10-25 02:58:00,27.7,22.3,29.12,West,270,0.0,0.0,80,0.00,CLR,,0.00,WeatherDisplay:10.37,2013-10-25 07:58:00,
2013-10-25 03:00:00,27.7,22.3,29.12,West,270,0.0,0.0,80,0.00,CLR,,0.00,WeatherDisplay:10.37,2013-10-25 08:00:00,
2013-10-25 03:01:00,27.7,22.3,29.12,West,270,0.0,0.0,80,0.00,CLR,,0.00,WeatherDisplay:10.37,2013-10-25 08:01:00,
2013-10-25 03:02:00,27.5,21.8,29.12,West,270,0.0,0.0,79,0.00,CLR,,0.00,WeatherDisplay:10.37,2013-10-25 08:02:00,
2013-10-25 03:03:00,27.5,21.8,29.12,SSW,202,0.0,0.0,79,0.00,CLR,,0.00,WeatherDisplay:10.37,2013-10-25 08:03:00,
2013-10-25 03:05:00,27.3,21.7,29.12,SSW,202,0.0,0.0,79,0.00,CLR,,0.00,WeatherDisplay:10.37,2013-10-25 08:05:00,
2013-10-25 03:06:00,27.3,21.7,29.12,SSW,202,0.0,0.0,79,0.00,CLR,,0.00,WeatherDisplay:10.37,2013-10-25 08:06:00,
2013-10-25 03:07:00,27.3,21.7,29.12,SSW,202,0.0,0.0,79,0.00,CLR,,0.00,WeatherDisplay:10.37,2013-10-25 08:07:00,
2013-10-25 03:08:00,27.3,21.7,29.12,South,180,0.0,0.0,79,0.00,CLR,,0.00,WeatherDisplay:10.37,2013-10-25 08:08:00,
2013-10-25 03:11:00,27.3,21.7,29.12,West,270,0.0,0.0,79,0.00,CLR,,0.00,WeatherDisplay:10.37,2013-10-25 08:11:00,
2013-10-25 03:12:00,27.3,21.7,29.12,West,270,0.0,0.0,79,0.00,CLR,,0.00,WeatherDisplay:10.37,2013-10-25 08:12:00,
2013-10-25 03:13:00,27.3,21.7,29.12,West,270,0.0,0.0,79,0.00,CLR,,0.00,WeatherDisplay:10.37,2013-10-25 08:13:00,
2013-10-25 03:16:00,27.3,21.7,29.12,West,270,0.0,0.0,79,0.00,CLR,,0.00,WeatherDisplay:10.37,2013-10-25 08:16:00,
2013-10-25 03:18:00,27.3,21.7,29.12,West,270,0.0,0.0,79,0.00,CLR,,0.00,WeatherDisplay:10.37,2013-10-25 08:18:00,
2013-10-25 03:19:00,27.3,21.7,29.12,WNW,292,0.0,0.0,79,0.00,CLR,,0.00,WeatherDisplay:10.37,2013-10-25 08:19:00,
2013-10-25 03:20:00,27.5,21.8,29.12,NW,315,2.4,0.0,79,0.00,CLR,,0.00,WeatherDisplay:10.37,2013-10-25 08:20:00,
2013-10-25 03:21:00,27.3,21.7,29.12,WNW,292,2.3,2.3,79,0.00,CLR,,0.00,WeatherDisplay:10.37,2013-10-25 08:21:00,
2013-10-25 03:23:00,27.3,21.7,29.12,West,270,2.6,2.6,79,0.00,CLR,,0.00,WeatherDisplay:10.37,2013-10-25 08:23:00,
2013-10-25 03:24:00,27.1,21.5,29.12,West,270,2.3,2.3,79,0.00,CLR,,0.00,WeatherDisplay:10.37,2013-10-25 08:24:00,
2013-10-25 03:25:00,27.1,21.5,29.12,West,270,2.3,2.3,79,0.00,CLR,,0.00,WeatherDisplay:10.37,2013-10-25 08:25:00,
2013-10-25 03:27:00,27.1,21.5,29.12,West,270,1.2,0.0,79,0.00,CLR,,0.00,WeatherDisplay:10.37,2013-10-25 08:27:00,
2013-10-25 03:28:00,27.3,21.7,29.12,WSW,248,0.0,0.0,79,0.00,CLR,,0.00,WeatherDisplay:10.37,2013-10-25 08:28:00,
2013-10-25 03:29:00,27.3,21.7,29.12,WSW,248,0.0,0.0,79,0.00,CLR,,0.00,WeatherDisplay:10.37,2013-10-25 08:29:00,
2013-10-25 03:30:00,27.5,21.8,29.12,NNW,338,0.0,0.0,79,0.00,CLR,,0.00,WeatherDisplay:10.37,2013-10-25 08:30:00,
2013-10-25 03:32:00,27.5,21.8,29.12,NNW,338,2.3,2.3,79,0.00,CLR,,0.00,WeatherDisplay:10.37,2013-10-25 08:32:00,
2013-10-25 03:33:00,27.7,22.3,29.12,NNW,338,2.3,2.3,80,0.00,CLR,,0.00,WeatherDisplay:10.37,2013-10-25 08:33:00,
2013-10-25 03:34:00,27.7,22.3,29.12,NNW,338,2.3,2.3,80,0.00,CLR,,0.00,WeatherDisplay:10.37,2013-10-25 08:34:00,
2013-10-25 03:35:00,27.9,22.5,29.12,West,270,2.3,2.3,80,0.00,CLR,,0.00,WeatherDisplay:10.37,2013-10-25 08:35:00,
2013-10-25 03:37:00,27.9,22.5,29.12,West,270,0.0,0.0,80,0.00,CLR,,0.00,WeatherDisplay:10.37,2013-10-25 08:37:00,
2013-10-25 03:39:00,28.0,22.7,29.12,West,270,0.0,0.0,80,0.00,CLR,,0.00,WeatherDisplay:10.37,2013-10-25 08:39:00,
2013-10-25 03:41:00,28.2,22.8,29.12,West,270,0.0,0.0,80,0.00,CLR,,0.00,WeatherDisplay:10.37,2013-10-25 08:41:00,
2013-10-25 03:42:00,28.4,23.0,29.12,WNW,292,1.6,1.6,80,0.00,CLR,,0.00,WeatherDisplay:10.37,2013-10-25 08:42:00,
2013-10-25 03:43:00,28.4,23.0,29.12,WNW,292,1.4,1.4,80,0.00,CLR,,0.00,WeatherDisplay:10.37,2013-10-25 08:43:00,
2013-10-25 03:44:00,28.6,23.2,29.12,WNW,292,2.3,0.0,80,0.00,CLR,,0.00,WeatherDisplay:10.37,2013-10-25 08:44:00,
2013-10-25 03:46:00,28.6,23.2,29.12,SW,225,2.3,0.0,80,0.00,CLR,,0.00,WeatherDisplay:10.37,2013-10-25 08:46:00,
2013-10-25 03:47:00,28.8,23.4,29.12,SW,225,2.4,0.0,80,0.00,CLR,,0.00,WeatherDisplay:10.37,2013-10-25 08:47:00,
2013-10-25 03:48:00,28.8,23.4,29.12,South,180,2.6,0.0,80,0.00,CLR,,0.00,WeatherDisplay:10.37,2013-10-25 08:48:00,
2013-10-25 03:49:00,28.8,23.7,29.12,South,180,2.3,2.3,81,0.00,CLR,,0.00,WeatherDisplay:10.37,2013-10-25 08:49:00,
2013-10-25 03:51:00,28.8,23.4,29.12,South,180,0.0,0.0,80,0.00,CLR,,0.00,WeatherDisplay:10.37,2013-10-25 08:51:00,
2013-10-25 03:53:00,28.8,23.4,29.12,South,180,0.0,0.0,80,0.00,CLR,,0.00,WeatherDisplay:10.37,2013-10-25 08:53:00,
2013-10-25 03:54:00,28.6,23.2,29.12,South,180,0.0,0.0,80,0.00,CLR,,0.00,WeatherDisplay:10.37,2013-10-25 08:54:00,
2013-10-25 03:55:00,28.6,23.2,29.12,South,180,0.0,0.0,80,0.00,CLR,,0.00,WeatherDisplay:10.37,2013-10-25 08:55:00,
2013-10-25 03:56:00,28.8,23.4,29.12,South,180,0.0,0.0,80,0.00,CLR,,0.00,WeatherDisplay:10.37,2013-10-25 08:56:00,
2013-10-25 03:58:00,28.8,23.4,29.12,WNW,292,0.0,0.0,80,0.00,CLR,,0.00,WeatherDisplay:10.37,2013-10-25 08:58:00,
2013-10-25 03:59:00,28.9,23.5,29.12,WNW,292,0.0,0.0,80,0.00,CLR,,0.00,WeatherDisplay:10.37,2013-10-25 08:59:00,
2013-10-25 04:00:00,28.9,23.5,29.12,WNW,292,0.0,0.0,80,0.00,CLR,,0.00,WeatherDisplay:10.37,2013-10-25 09:00:00,
2013-10-25 04:02:00,28.9,23.5,29.12,WNW,292,0.0,0.0,80,0.00,CLR,,0.00,WeatherDisplay:10.37,2013-10-25 09:02:00,
2013-10-25 04:03:00,29.1,23.7,29.12,WNW,292,1.2,0.0,80,0.00,CLR,,0.00,WeatherDisplay:10.37,2013-10-25 09:03:00,
2013-10-25 04:05:00,29.1,23.7,29.12,West,278,0.0,1.0,80,0.00,CLR,,0.00,WeatherDisplay:10.37,2013-10-25 09:05:00,
2013-10-25 04:07:00,29.3,23.9,29.12,SW,225,1.2,0.0,80,0.00,CLR,,0.00,WeatherDisplay:10.37,2013-10-25 09:07:00,
2013-10-25 04:09:00,29.3,23.9,29.12,SW,225,0.0,0.0,80,0.00,CLR,,0.00,WeatherDisplay:10.37,2013-10-25 09:09:00,
2013-10-25 04:10:00,29.5,24.1,29.12,SW,225,0.0,0.0,80,0.00,CLR,,0.00,WeatherDisplay:10.37,2013-10-25 09:10:00,
2013-10-25 04:11:00,29.5,24.1,29.12,SW,225,0.0,0.0,80,0.00,CLR,,0.00,WeatherDisplay:10.37,2013-10-25 09:11:00,
2013-10-25 04:14:00,29.5,24.1,29.12,SW,225,0.0,0.0,80,0.00,CLR,,0.00,WeatherDisplay:10.37,2013-10-25 09:14:00,
2013-10-25 04:15:00,29.5,24.1,29.12,SW,225,0.0,0.0,80,0.00,CLR,,0.00,WeatherDisplay:10.37,2013-10-25 09:15:00,
2013-10-25 04:16:00,29.7,24.2,29.12,SW,225,0.0,0.0,80,0.00,CLR,,0.00,WeatherDisplay:10.37,2013-10-25 09:16:00,
2013-10-25 04:19:00,29.8,24.4,29.12,NW,315,1.2,0.0,80,0.00,CLR,,0.00,WeatherDisplay:10.37,2013-10-25 09:19:00,
2013-10-25 04:20:00,29.8,24.4,29.12,NW,315,0.0,0.0,80,0.00,CLR,,0.00,WeatherDisplay:10.37,2013-10-25 09:20:00,
2013-10-25 04:21:00,30.0,24.6,29.12,NW,315,0.0,0.0,80,0.00,CLR,,0.00,WeatherDisplay:10.37,2013-10-25 09:21:00,
2013-10-25 04:25:00,30.0,24.3,29.12,NNW,338,0.0,0.0,79,0.00,CLR,,0.00,WeatherDisplay:10.37,2013-10-25 09:25:00,
2013-10-25 04:26:00,30.0,24.3,29.12,NNW,338,0.0,0.0,79,0.00,CLR,,0.00,WeatherDisplay:10.37,2013-10-25 09:26:00,
2013-10-25 04:30:00,30.2,24.5,29.12,WSW,248,0.0,0.0,79,0.00,CLR,,0.00,WeatherDisplay:10.37,2013-10-25 09:30:00,
2013-10-25 04:31:00,30.2,24.5,29.12,WSW,248,0.0,0.0,79,0.00,CLR,,0.00,WeatherDisplay:10.37,2013-10-25 09:31:00,
2013-10-25 04:32:00,30.2,24.5,29.12,WSW,248,0.0,0.0,79,0.00,CLR,,0.00,WeatherDisplay:10.37,2013-10-25 09:32:00,
2013-10-25 04:35:00,30.4,24.6,29.12,WNW,292,0.0,0.0,79,0.00,CLR,,0.00,WeatherDisplay:10.37,2013-10-25 09:35:00,
2013-10-25 04:36:00,30.4,24.6,29.12,WNW,292,1.2,0.0,79,0.00,CLR,,0.00,WeatherDisplay:10.37,2013-10-25 09:36:00,
2013-10-25 04:37:00,30.4,24.6,29.12,SW,225,0.9,0.0,79,0.00,CLR,,0.00,WeatherDisplay:10.37,2013-10-25 09:37:00,
2013-10-25 04:41:00,30.6,24.8,29.12,SW,225,0.0,0.0,79,0.00,CLR,,0.00,WeatherDisplay:10.37,2013-10-25 09:41:00,
2013-10-25 04:42:00,30.7,25.0,29.12,West,270,0.0,0.0,79,0.00,CLR,,0.00,WeatherDisplay:10.37,2013-10-25 09:42:00,
2013-10-25 04:43:00,30.7,25.0,29.12,West,270,0.0,0.0,79,0.00,CLR,,0.00,WeatherDisplay:10.37,2013-10-25 09:43:00,
2013-10-25 04:46:00,30.9,24.9,29.12,WNW,292,1.2,1.2,78,0.00,CLR,,0.00,WeatherDisplay:10.37,2013-10-25 09:46:00,
2013-10-25 04:47:00,30.9,24.9,29.12,WSW,248,1.2,0.0,78,0.00,CLR,,0.00,WeatherDisplay:10.37,2013-10-25 09:47:00,
2013-10-25 04:48:00,30.9,24.9,29.12,WNW,292,1.2,0.0,78,0.00,CLR,,0.00,WeatherDisplay:10.37,2013-10-25 09:48:00,
2013-10-25 04:51:00,31.1,25.0,29.12,NNW,338,2.3,2.3,78,0.00,CLR,,0.00,WeatherDisplay:10.37,2013-10-25 09:51:00,
2013-10-25 04:52:00,31.1,25.0,29.12,WSW,248,0.0,0.0,78,0.00,CLR,,0.00,WeatherDisplay:10.37,2013-10-25 09:52:00,
2013-10-25 04:53:00,31.1,25.0,29.12,WSW,248,0.0,0.0,78,0.00,CLR,,0.00,WeatherDisplay:10.37,2013-10-25 09:53:00,
2013-10-25 04:56:00,31.3,25.2,29.12,WNW,292,0.0,0.0,78,0.00,CLR,,0.00,WeatherDisplay:10.37,2013-10-25 09:56:00,
2013-10-25 04:57:00,31.3,25.2,29.12,WNW,292,0.0,0.0,78,0.00,CLR,,0.00,WeatherDisplay:10.37,2013-10-25 09:57:00,
2013-10-25 04:59:00,31.3,25.2,29.12,West,270,1.2,0.0,78,0.00,CLR,,0.00,WeatherDisplay:10.37,2013-10-25 09:59:00,
2013-10-25 05:01:00,31.3,25.2,29.12,SW,225,0.0,0.0,78,0.00,CLR,,0.00,WeatherDisplay:10.37,2013-10-25 10:01:00,
2013-10-25 05:02:00,31.5,25.4,29.12,West,270,0.0,0.0,78,0.00,CLR,,0.00,WeatherDisplay:10.37,2013-10-25 10:02:00,
2013-10-25 05:03:00,31.5,25.4,29.12,WSW,248,1.2,0.0,78,0.00,CLR,,0.00,WeatherDisplay:10.37,2013-10-25 10:03:00,
2013-10-25 05:04:00,31.5,25.4,29.12,WSW,248,1.6,1.6,78,0.00,CLR,,0.00,WeatherDisplay:10.37,2013-10-25 10:04:00,
2013-10-25 05:06:00,31.6,25.6,29.12,SW,225,0.0,0.0,78,0.00,CLR,,0.00,WeatherDisplay:10.37,2013-10-25 10:06:00,
2013-10-25 05:07:00,31.6,25.6,29.12,SW,225,0.0,0.0,78,0.00,CLR,,0.00,WeatherDisplay:10.37,2013-10-25 10:07:00,
2013-10-25 05:08:00,31.6,25.6,29.12,West,270,0.0,0.0,78,0.00,CLR,,0.00,WeatherDisplay:10.37,2013-10-25 10:08:00,
2013-10-25 05:09:00,31.6,25.6,29.12,West,270,0.0,0.0,78,0.00,CLR,,0.00,WeatherDisplay:10.37,2013-10-25 10:09:00,
2013-10-25 05:10:00,31.6,25.6,29.12,West,270,0.0,0.0,78,0.00,CLR,,0.00,WeatherDisplay:10.37,2013-10-25 10:10:00,
2013-10-25 05:11:00,31.6,25.6,29.12,West,270,0.0,0.0,78,0.00,CLR,,0.00,WeatherDisplay:10.37,2013-10-25 10:11:00,
2013-10-25 05:12:00,31.6,25.6,29.12,SW,225,2.0,0.0,78,0.00,CLR,,0.00,WeatherDisplay:10.37,2013-10-25 10:12:00,
2013-10-25 05:13:00,31.6,25.6,29.12,SW,225,0.0,0.0,78,0.00,CLR,,0.00,WeatherDisplay:10.37,2013-10-25 10:13:00,
2013-10-25 05:14:00,31.8,25.7,29.12,SW,225,0.0,0.0,78,0.00,CLR,,0.00,WeatherDisplay:10.37,2013-10-25 10:14:00,
2013-10-25 05:15:00,31.8,25.4,29.12,SW,225,0.0,0.0,77,0.00,CLR,,0.00,WeatherDisplay:10.37,2013-10-25 10:15:00,
2013-10-25 05:16:00,31.8,25.4,29.12,SW,225,1.2,0.0,77,0.00,CLR,,0.00,WeatherDisplay:10.37,2013-10-25 10:16:00,
2013-10-25 05:18:00,31.8,25.4,29.12,SW,225,1.2,0.0,77,0.00,CLR,,0.00,WeatherDisplay:10.37,2013-10-25 10:18:00,
2013-10-25 05:20:00,31.8,25.4,29.12,SSW,202,0.0,0.0,77,0.00,CLR,,0.00,WeatherDisplay:10.37,2013-10-25 10:20:00,
2013-10-25 05:21:00,31.8,25.4,29.12,West,270,0.0,0.0,77,0.00,CLR,,0.00,WeatherDisplay:10.37,2013-10-25 10:21:00,
2013-10-25 05:23:00,32.0,25.6,29.12,West,270,2.3,0.0,77,0.00,CLR,,0.00,WeatherDisplay:10.37,2013-10-25 10:23:00,
2013-10-25 05:25:00,32.0,25.6,29.15,South,180,1.2,0.0,77,0.00,CLR,,0.00,WeatherDisplay:10.37,2013-10-25 10:25:00,
2013-10-25 05:27:00,32.0,25.6,29.15,South,180,0.0,0.0,77,0.00,CLR,,0.00,WeatherDisplay:10.37,2013-10-25 10:27:00,
2013-10-25 05:28:00,32.0,25.6,29.15,South,180,0.0,0.0,77,0.00,CLR,,0.00,WeatherDisplay:10.37,2013-10-25 10:28:00,
2013-10-25 05:29:00,32.0,25.6,29.15,South,180,0.0,0.0,77,0.00,CLR,,0.00,WeatherDisplay:10.37,2013-10-25 10:29:00,
2013-10-25 05:30:00,32.0,25.6,29.15,South,180,0.0,0.0,77,0.00,CLR,,0.00,WeatherDisplay:10.37,2013-10-25 10:30:00,
2013-10-25 05:31:00,32.0,25.6,29.15,South,180,0.0,0.0,77,0.00,CLR,,0.00,WeatherDisplay:10.37,2013-10-25 10:31:00,
2013-10-25 05:32:00,32.0,25.6,29.15,NW,315,0.0,0.0,77,0.00,CLR,,0.00,WeatherDisplay:10.37,2013-10-25 10:32:00,
2013-10-25 05:33:00,32.0,25.6,29.15,NW,315,1.2,0.0,77,0.00,CLR,,0.00,WeatherDisplay:10.37,2013-10-25 10:33:00,
2013-10-25 05:34:00,32.0,25.6,29.15,SW,225,0.0,0.0,77,0.00,CLR,,0.00,WeatherDisplay:10.37,2013-10-25 10:34:00,
2013-10-25 05:36:00,32.0,25.6,29.15,WNW,292,1.2,1.2,77,0.00,CLR,,0.00,WeatherDisplay:10.37,2013-10-25 10:36:00,
2013-10-25 05:37:00,32.0,25.6,29.15,WNW,292,1.2,1.2,77,0.00,CLR,,0.00,WeatherDisplay:10.37,2013-10-25 10:37:00,
2013-10-25 05:38:00,32.0,25.6,29.15,WSW,248,0.0,0.0,77,0.00,CLR,,0.00,WeatherDisplay:10.37,2013-10-25 10:38:00,
2013-10-25 05:39:00,32.0,25.6,29.15,SSW,202,0.0,0.0,77,0.00,CLR,,0.00,WeatherDisplay:10.37,2013-10-25 10:39:00,
2013-10-25 05:41:00,32.2,25.8,29.15,South,180,2.3,2.3,77,0.00,CLR,,0.00,WeatherDisplay:10.37,2013-10-25 10:41:00,
2013-10-25 05:42:00,32.2,25.8,29.15,SSW,202,1.2,0.0,77,0.00,CLR,,0.00,WeatherDisplay:10.37,2013-10-25 10:42:00,
2013-10-25 05:43:00,32.2,25.8,29.15,SSW,202,0.0,0.0,77,0.00,CLR,,0.00,WeatherDisplay:10.37,2013-10-25 10:43:00,
2013-10-25 05:44:00,32.2,25.8,29.15,SSW,202,0.0,0.0,77,0.00,CLR,,0.00,WeatherDisplay:10.37,2013-10-25 10:44:00,
2013-10-25 05:47:00,32.4,26.0,29.15,SSW,202,0.0,0.0,77,0.00,CLR,,0.00,WeatherDisplay:10.37,2013-10-25 10:47:00,
2013-10-25 05:48:00,32.4,26.0,29.15,SE,135,0.9,0.0,77,0.00,CLR,,0.00,WeatherDisplay:10.37,2013-10-25 10:48:00,
2013-10-25 05:49:00,32.4,26.0,29.15,SE,135,1.2,0.0,77,0.00,CLR,,0.00,WeatherDisplay:10.37,2013-10-25 10:49:00,
2013-10-25 05:52:00,32.2,25.5,29.15,South,180,0.0,0.0,76,0.00,CLR,,0.00,WeatherDisplay:10.37,2013-10-25 10:52:00,
2013-10-25 05:53:00,32.2,25.5,29.15,SSW,202,0.0,0.0,76,0.00,CLR,,0.00,WeatherDisplay:10.37,2013-10-25 10:53:00,
2013-10-25 05:54:00,32.4,25.6,29.15,WSW,248,0.0,0.0,76,0.00,CLR,,0.00,WeatherDisplay:10.37,2013-10-25 10:54:00,
2013-10-25 05:55:00,32.4,25.6,29.12,SW,225,0.0,0.0,76,0.00,CLR,,0.00,WeatherDisplay:10.37,2013-10-25 10:55:00,
2013-10-25 05:57:00,32.4,25.6,29.12,WNW,292,1.4,0.0,76,0.00,CLR,,0.00,WeatherDisplay:10.37,2013-10-25 10:57:00,
2013-10-25 05:58:00,32.4,25.6,29.12,West,270,1.4,0.0,76,0.00,CLR,,0.00,WeatherDisplay:10.37,2013-10-25 10:58:00,
2013-10-25 05:59:00,32.4,25.6,29.12,West,270,1.2,1.2,76,0.00,CLR,,0.00,WeatherDisplay:10.37,2013-10-25 10:59:00,
2013-10-25 06:00:00,32.4,25.6,29.12,West,270,1.2,1.2,76,0.00,CLR,,0.00,WeatherDisplay:10.37,2013-10-25 11:00:00,
2013-10-25 06:02:00,32.5,25.8,29.12,West,270,1.2,0.0,76,0.00,CLR,,0.00,WeatherDisplay:10.37,2013-10-25 11:02:00,
2013-10-25 06:03:00,32.5,25.8,29.12,West,270,0.0,0.0,76,0.00,CLR,,0.00,WeatherDisplay:10.37,2013-10-25 11:03:00,
2013-10-25 06:04:00,32.5,25.8,29.12,SW,225,0.0,0.0,76,0.00,CLR,,0.00,WeatherDisplay:10.37,2013-10-25 11:04:00,
2013-10-25 06:05:00,32.5,25.8,29.12,WSW,248,1.2,0.0,76,0.00,CLR,,0.00,WeatherDisplay:10.37,2013-10-25 11:05:00,
2013-10-25 06:07:00,32.5,25.8,29.12,West,270,0.0,0.0,76,0.00,CLR,,0.00,WeatherDisplay:10.37,2013-10-25 11:07:00,
2013-10-25 06:08:00,32.5,25.8,29.12,West,270,0.0,0.0,76,0.00,CLR,,0.00,WeatherDisplay:10.37,2013-10-25 11:08:00,
2013-10-25 06:09:00,32.5,25.8,29.12,West,270,0.0,0.0,76,0.00,CLR,,0.00,WeatherDisplay:10.37,2013-10-25 11:09:00,
2013-10-25 06:10:00,32.5,25.8,29.12,West,270,0.0,0.0,76,0.00,CLR,,0.00,WeatherDisplay:10.37,2013-10-25 11:10:00,
2013-10-25 06:11:00,32.5,25.5,29.12,West,270,0.0,0.0,75,0.00,CLR,,0.00,WeatherDisplay:10.37,2013-10-25 11:11:00,
2013-10-25 06:13:00,32.5,25.5,29.12,NNW,338,0.0,0.0,75,0.00,CLR,,0.00,WeatherDisplay:10.37,2013-10-25 11:13:00,
2013-10-25 06:14:00,32.5,25.5,29.12,NNW,338,0.0,0.0,75,0.00,CLR,,0.00,WeatherDisplay:10.37,2013-10-25 11:14:00,
2013-10-25 06:15:00,32.5,25.5,29.12,NNW,338,0.0,0.0,75,0.00,CLR,,0.00,WeatherDisplay:10.37,2013-10-25 11:15:00,
2013-10-25 06:18:00,32.5,25.5,29.12,NNW,338,0.0,0.0,75,0.00,CLR,,0.00,WeatherDisplay:10.37,2013-10-25 11:18:00,
2013-10-25 06:19:00,32.5,25.5,29.12,NNW,338,0.0,0.0,75,0.00,CLR,,0.00,WeatherDisplay:10.37,2013-10-25 11:19:00,
2013-10-25 06:20:00,32.5,25.5,29.12,NNW,338,0.0,0.0,75,0.00,CLR,,0.00,WeatherDisplay:10.37,2013-10-25 11:20:00,
2013-10-25 06:21:00,32.4,25.3,29.12,NNW,338,0.0,0.0,75,0.00,CLR,,0.00,WeatherDisplay:10.37,2013-10-25 11:21:00,
2013-10-25 06:23:00,32.4,25.3,29.12,NNW,338,0.0,0.0,75,0.00,CLR,,0.00,WeatherDisplay:10.37,2013-10-25 11:23:00,
2013-10-25 06:24:00,32.4,25.3,29.12,NNW,338,0.0,0.0,75,0.00,CLR,,0.00,WeatherDisplay:10.37,2013-10-25 11:24:00,
2013-10-25 06:25:00,32.4,25.3,29.12,NNW,338,0.0,0.0,75,0.00,CLR,,0.00,WeatherDisplay:10.37,2013-10-25 11:25:00,
2013-10-25 06:26:00,32.4,25.3,29.12,NNW,338,1.2,0.0,75,0.00,CLR,,0.00,WeatherDisplay:10.37,2013-10-25 11:26:00,
2013-10-25 06:28:00,32.4,25.3,29.12,NNW,338,1.2,0.0,75,0.00,CLR,,0.00,WeatherDisplay:10.37,2013-10-25 11:28:00,
2013-10-25 06:29:00,32.4,25.3,29.12,NNW,338,1.2,0.0,75,0.00,CLR,,0.00,WeatherDisplay:10.37,2013-10-25 11:29:00,
2013-10-25 06:30:00,32.4,25.3,29.12,NNW,338,0.0,0.0,75,0.00,CLR,,0.00,WeatherDisplay:10.37,2013-10-25 11:30:00,
2013-10-25 06:31:00,32.4,25.3,29.12,NNW,338,0.0,0.0,75,0.00,CLR,,0.00,WeatherDisplay:10.37,2013-10-25 11:31:00,
2013-10-25 06:33:00,32.2,25.1,29.12,NNW,338,1.2,1.2,75,0.00,CLR,,0.00,WeatherDisplay:10.37,2013-10-25 11:33:00,
2013-10-25 06:34:00,32.2,24.8,29.12,WNW,292,1.2,1.2,74,0.00,CLR,,0.00,WeatherDisplay:10.37,2013-10-25 11:34:00,
2013-10-25 06:35:00,32.2,24.8,29.12,WNW,292,2.3,2.3,74,0.00,CLR,,0.00,WeatherDisplay:10.37,2013-10-25 11:35:00,
2013-10-25 06:36:00,32.2,24.8,29.12,WNW,292,2.3,2.3,74,0.00,CLR,,0.00,WeatherDisplay:10.37,2013-10-25 11:36:00,
2013-10-25 06:38:00,32.2,25.1,29.12,West,270,3.5,3.5,75,0.00,CLR,,0.00,WeatherDisplay:10.37,2013-10-25 11:38:00,
2013-10-25 06:39:00,32.2,25.1,29.12,WSW,248,4.6,4.6,75,0.00,CLR,,0.00,WeatherDisplay:10.37,2013-10-25 11:39:00,
2013-10-25 06:40:00,32.2,25.1,29.12,West,270,2.3,2.3,75,0.00,CLR,,0.00,WeatherDisplay:10.37,2013-10-25 11:40:00,
2013-10-25 06:41:00,32.2,24.8,29.12,SW,225,3.5,3.5,74,0.00,CLR,,0.00,WeatherDisplay:10.37,2013-10-25 11:41:00,
2013-10-25 06:43:00,32.4,25.0,29.12,NNW,338,2.2,0.0,74,0.00,CLR,,0.00,WeatherDisplay:10.37,2013-10-25 11:43:00,
2013-10-25 06:44:00,32.4,25.0,29.12,NNW,338,2.3,2.3,74,0.00,CLR,,0.00,WeatherDisplay:10.37,2013-10-25 11:44:00,
2013-10-25 06:45:00,32.4,25.0,29.12,WSW,248,2.3,2.3,74,0.00,CLR,,0.00,WeatherDisplay:10.37,2013-10-25 11:45:00,
2013-10-25 06:46:00,32.4,25.0,29.12,NW,315,2.3,2.3,74,0.00,CLR,,0.00,WeatherDisplay:10.37,2013-10-25 11:46:00,
2013-10-25 06:48:00,32.2,24.8,29.12,WSW,248,2.3,2.3,74,0.00,CLR,,0.00,WeatherDisplay:10.37,2013-10-25 11:48:00,
2013-10-25 06:49:00,32.2,24.8,29.12,WSW,248,3.5,3.5,74,0.00,CLR,,0.00,WeatherDisplay:10.37,2013-10-25 11:49:00,
2013-10-25 06:50:00,32.2,24.8,29.12,WSW,248,3.5,3.5,74,0.00,CLR,,0.00,WeatherDisplay:10.37,2013-10-25 11:50:00,
2013-10-25 06:51:00,32.2,24.8,29.12,SSW,202,3.6,3.6,74,0.00,CLR,,0.00,WeatherDisplay:10.37,2013-10-25 11:51:00,
2013-10-25 06:52:00,32.2,24.8,29.12,WNW,292,3.5,3.5,74,0.00,CLR,,0.00,WeatherDisplay:10.37,2013-10-25 11:52:00,
2013-10-25 06:53:00,32.2,24.5,29.12,WNW,292,2.3,2.6,73,0.00,CLR,,0.00,WeatherDisplay:10.37,2013-10-25 11:53:00,
2013-10-25 06:55:00,32.2,24.5,29.12,WNW,292,1.2,1.2,73,0.00,CLR,,0.00,WeatherDisplay:10.37,2013-10-25 11:55:00,
2013-10-25 06:56:00,32.2,24.5,29.12,WNW,292,2.3,2.3,73,0.00,CLR,,0.00,WeatherDisplay:10.37,2013-10-25 11:56:00,
2013-10-25 06:57:00,32.2,24.5,29.12,West,270,3.5,3.5,73,0.00,CLR,,0.00,WeatherDisplay:10.37,2013-10-25 11:57:00,
2013-10-25 06:58:00,32.2,24.5,29.12,West,270,2.3,2.3,73,0.00,CLR,,0.00,WeatherDisplay:10.37,2013-10-25 11:58:00,
2013-10-25 07:00:00,32.2,24.5,29.12,West,270,1.2,0.0,73,0.00,CLR,,0.00,WeatherDisplay:10.37,2013-10-25 12:00:00,
2013-10-25 07:01:00,32.2,24.5,29.12,West,270,0.0,0.0,73,0.00,CLR,,0.00,WeatherDisplay:10.37,2013-10-25 12:01:00,
2013-10-25 07:02:00,32.2,24.5,29.12,West,270,0.0,0.0,73,0.00,CLR,,0.00,WeatherDisplay:10.37,2013-10-25 12:02:00,
2013-10-25 07:04:00,32.0,24.3,29.12,WNW,292,1.2,0.0,73,0.00,CLR,,0.00,WeatherDisplay:10.37,2013-10-25 12:04:00,
2013-10-25 07:05:00,32.0,24.3,29.12,WNW,292,0.0,0.0,73,0.00,CLR,,0.00,WeatherDisplay:10.37,2013-10-25 12:05:00,
2013-10-25 07:06:00,32.0,24.3,29.12,WNW,292,0.0,0.0,73,0.00,CLR,,0.00,WeatherDisplay:10.37,2013-10-25 12:06:00,
2013-10-25 07:07:00,32.0,24.3,29.12,WNW,292,0.0,0.0,73,0.00,CLR,,0.00,WeatherDisplay:10.37,2013-10-25 12:07:00,
2013-10-25 07:09:00,31.8,24.1,29.12,WNW,292,1.2,1.2,73,0.00,CLR,,0.00,WeatherDisplay:10.37,2013-10-25 12:09:00,
2013-10-25 07:11:00,31.8,24.1,29.12,WNW,292,0.0,0.0,73,0.00,CLR,,0.00,WeatherDisplay:10.37,2013-10-25 12:11:00,
2013-10-25 07:12:00,31.8,24.1,29.12,WNW,292,0.0,0.0,73,0.00,CLR,,0.00,WeatherDisplay:10.37,2013-10-25 12:12:00,
2013-10-25 07:14:00,31.8,24.1,29.12,WNW,292,0.0,0.0,73,0.00,CLR,,0.00,WeatherDisplay:10.37,2013-10-25 12:14:00,
2013-10-25 07:16:00,31.6,24.0,29.12,WNW,292,0.0,0.0,73,0.00,CLR,,0.00,WeatherDisplay:10.37,2013-10-25 12:16:00,
2013-10-25 07:17:00,31.6,24.0,29.12,WNW,292,0.0,0.0,73,0.00,CLR,,0.00,WeatherDisplay:10.37,2013-10-25 12:17:00,
2013-10-25 07:20:00,31.8,24.1,29.12,SW,225,0.0,0.0,73,0.00,CLR,,0.00,WeatherDisplay:10.37,2013-10-25 12:20:00,
2013-10-25 07:22:00,31.8,24.1,29.12,SW,225,0.0,0.0,73,0.00,CLR,,0.00,WeatherDisplay:10.37,2013-10-25 12:22:00,
2013-10-25 07:23:00,31.8,24.1,29.12,SW,225,0.0,0.0,73,0.00,CLR,,0.00,WeatherDisplay:10.37,2013-10-25 12:23:00,
2013-10-25 07:24:00,31.8,24.1,29.12,SW,225,0.0,0.0,73,0.00,CLR,,0.00,WeatherDisplay:10.37,2013-10-25 12:24:00,
2013-10-25 07:25:00,31.8,24.1,29.12,SW,225,0.0,0.0,73,0.00,CLR,,0.00,WeatherDisplay:10.37,2013-10-25 12:25:00,
2013-10-25 07:27:00,32.0,24.3,29.12,SW,225,0.0,0.0,73,0.00,CLR,,0.00,WeatherDisplay:10.37,2013-10-25 12:27:00,
2013-10-25 07:28:00,32.0,24.3,29.12,SW,225,0.0,0.0,73,0.00,CLR,,0.00,WeatherDisplay:10.37,2013-10-25 12:28:00,
2013-10-25 07:29:00,32.0,24.3,29.12,SW,225,0.0,0.0,73,0.00,CLR,,0.00,WeatherDisplay:10.37,2013-10-25 12:29:00,
2013-10-25 07:30:00,32.0,24.3,29.12,SW,225,0.0,0.0,73,0.00,CLR,,0.00,WeatherDisplay:10.37,2013-10-25 12:30:00,
2013-10-25 07:32:00,32.0,24.3,29.12,WSW,248,0.0,0.0,73,0.00,CLR,,0.00,WeatherDisplay:10.37,2013-10-25 12:32:00,
2013-10-25 07:33:00,32.0,24.3,29.12,West,270,0.0,0.0,73,0.00,CLR,,0.00,WeatherDisplay:10.37,2013-10-25 12:33:00,
2013-10-25 07:34:00,32.0,24.3,29.12,West,270,1.2,0.0,73,0.00,CLR,,0.00,WeatherDisplay:10.37,2013-10-25 12:34:00,
2013-10-25 07:35:00,32.0,24.3,29.12,West,270,0.0,0.0,73,0.00,CLR,,0.00,WeatherDisplay:10.37,2013-10-25 12:35:00,
2013-10-25 07:37:00,32.0,24.3,29.12,West,270,0.0,0.0,73,0.00,CLR,,0.00,WeatherDisplay:10.37,2013-10-25 12:37:00,
2013-10-25 07:38:00,32.0,24.3,29.12,West,270,0.0,0.0,73,0.00,CLR,,0.00,WeatherDisplay:10.37,2013-10-25 12:38:00,
2013-10-25 07:40:00,32.2,24.5,29.12,West,270,0.0,0.0,73,0.00,CLR,,0.00,WeatherDisplay:10.37,2013-10-25 12:40:00,
2013-10-25 07:42:00,32.2,24.5,29.12,West,270,0.0,0.0,73,0.00,CLR,,0.00,WeatherDisplay:10.37,2013-10-25 12:42:00,
2013-10-25 07:43:00,32.2,24.5,29.12,West,270,0.0,0.0,73,0.00,CLR,,0.00,WeatherDisplay:10.37,2013-10-25 12:43:00,
2013-10-25 07:45:00,32.2,24.5,29.12,West,270,0.0,0.0,73,0.00,CLR,,0.00,WeatherDisplay:10.37,2013-10-25 12:45:00,
2013-10-25 07:47:00,32.2,24.5,29.12,West,270,0.0,0.0,73,0.00,CLR,,0.00,WeatherDisplay:10.37,2013-10-25 12:47:00,
2013-10-25 07:48:00,32.2,24.5,29.12,West,270,0.0,0.0,73,0.00,CLR,,0.00,WeatherDisplay:10.37,2013-10-25 12:48:00,
2013-10-25 07:49:00,32.2,24.5,29.12,West,270,0.0,0.0,73,0.00,CLR,,0.00,WeatherDisplay:10.37,2013-10-25 12:49:00,
2013-10-25 07:50:00,32.2,24.5,29.12,West,270,0.0,0.0,73,0.00,CLR,,0.00,WeatherDisplay:10.37,2013-10-25 12:50:00,
2013-10-25 07:51:00,32.2,24.5,29.12,West,270,0.0,0.0,73,0.00,CLR,,0.00,WeatherDisplay:10.37,2013-10-25 12:51:00,
2013-10-25 07:53:00,32.4,24.7,29.12,West,270,0.0,0.0,73,0.00,CLR,,0.00,WeatherDisplay:10.37,2013-10-25 12:53:00,
2013-10-25 07:54:00,32.4,24.7,29.12,West,270,0.0,0.0,73,0.00,CLR,,0.00,WeatherDisplay:10.37,2013-10-25 12:54:00,
2013-10-25 07:56:00,32.4,24.7,29.12,West,270,0.0,0.0,73,0.00,CLR,,0.00,WeatherDisplay:10.37,2013-10-25 12:56:00,
2013-10-25 07:58:00,32.4,24.7,29.12,West,270,0.0,0.0,73,0.00,CLR,,0.00,WeatherDisplay:10.37,2013-10-25 12:58:00,
2013-10-25 07:59:00,32.4,24.7,29.12,West,270,0.0,0.0,73,0.00,CLR,,0.00,WeatherDisplay:10.37,2013-10-25 12:59:00,
2013-10-25 08:01:00,32.5,24.8,29.12,West,270,0.0,0.0,73,0.00,CLR,,0.00,WeatherDisplay:10.37,2013-10-25 13:01:00,
2013-10-25 08:02:00,32.5,24.8,29.12,West,270,0.0,0.0,73,0.00,CLR,,0.00,WeatherDisplay:10.37,2013-10-25 13:02:00,
2013-10-25 08:03:00,32.5,24.8,29.12,West,270,0.0,0.0,73,0.00,CLR,,0.00,WeatherDisplay:10.37,2013-10-25 13:03:00,
2013-10-25 08:04:00,32.5,24.8,29.12,West,270,0.0,0.0,73,0.00,CLR,,0.00,WeatherDisplay:10.37,2013-10-25 13:04:00,
2013-10-25 08:06:00,32.5,24.8,29.12,West,270,0.0,0.0,73,0.00,CLR,,0.00,WeatherDisplay:10.37,2013-10-25 13:06:00,
2013-10-25 08:07:00,32.5,24.8,29.12,West,270,0.0,0.0,73,0.00,CLR,,0.00,WeatherDisplay:10.37,2013-10-25 13:07:00,
2013-10-25 08:08:00,32.7,25.0,29.12,West,270,0.0,0.0,73,0.00,CLR,,0.00,WeatherDisplay:10.37,2013-10-25 13:08:00,
2013-10-25 08:09:00,33.3,25.5,29.12,West,270,0.0,0.0,73,0.00,CLR,,0.00,WeatherDisplay:10.37,2013-10-25 13:09:00,
2013-10-25 08:11:00,34.0,26.2,29.12,West,270,0.0,0.0,73,0.00,CLR,,0.00,WeatherDisplay:10.37,2013-10-25 13:11:00,
2013-10-25 08:12:00,33.8,26.1,29.12,West,270,0.0,0.0,73,0.00,CLR,,0.00,WeatherDisplay:10.37,2013-10-25 13:12:00,
2013-10-25 08:13:00,33.8,26.1,29.12,West,270,0.0,0.0,73,0.00,CLR,,0.00,WeatherDisplay:10.37,2013-10-25 13:13:00,
2013-10-25 08:14:00,34.5,26.8,29.12,West,270,0.0,0.0,73,0.00,CLR,,0.00,WeatherDisplay:10.37,2013-10-25 13:14:00,
2013-10-25 08:16:00,35.4,28.0,29.12,West,270,0.0,0.0,74,0.00,CLR,,0.00,WeatherDisplay:10.37,2013-10-25 13:16:00,
2013-10-25 08:18:00,35.8,28.0,29.12,SSW,202,2.3,0.0,73,0.00,CLR,,0.00,WeatherDisplay:10.37,2013-10-25 13:18:00,
2013-10-25 08:19:00,36.0,28.1,29.12,SSW,202,0.0,0.0,73,0.00,CLR,,0.00,WeatherDisplay:10.37,2013-10-25 13:19:00,
2013-10-25 08:20:00,36.3,28.5,29.12,SSW,202,0.0,0.0,73,0.00,CLR,,0.00,WeatherDisplay:10.37,2013-10-25 13:20:00,
2013-10-25 08:21:00,36.9,29.3,29.12,SSW,202,0.0,0.0,74,0.00,CLR,,0.00,WeatherDisplay:10.37,2013-10-25 13:21:00,
2013-10-25 08:23:00,37.2,29.4,29.12,SSW,202,0.0,0.0,73,0.00,CLR,,0.00,WeatherDisplay:10.37,2013-10-25 13:23:00,
2013-10-25 08:24:00,37.9,30.1,29.12,SE,135,0.0,0.0,73,0.00,CLR,,0.00,WeatherDisplay:10.37,2013-10-25 13:24:00,
2013-10-25 08:25:00,38.1,30.2,29.12,ESE,112,0.0,0.0,73,0.00,CLR,,0.00,WeatherDisplay:10.37,2013-10-25 13:25:00,
2013-10-25 08:26:00,38.8,30.9,29.12,ESE,112,0.0,0.0,73,0.00,CLR,,0.00,WeatherDisplay:10.37,2013-10-25 13:26:00,
2013-10-25 08:28:00,39.2,30.9,29.12,ESE,112,0.0,0.0,72,0.00,CLR,,0.00,WeatherDisplay:10.37,2013-10-25 13:28:00,
2013-10-25 08:29:00,39.2,30.9,29.12,West,270,0.0,0.0,72,0.00,CLR,,0.00,WeatherDisplay:10.37,2013-10-25 13:29:00,
2013-10-25 08:30:00,39.2,30.9,29.12,NW,315,0.0,0.0,72,0.00,CLR,,0.00,WeatherDisplay:10.37,2013-10-25 13:30:00,
2013-10-25 08:32:00,39.9,30.9,29.12,NNW,338,0.0,0.0,70,0.00,CLR,,0.00,WeatherDisplay:10.37,2013-10-25 13:32:00,
2013-10-25 08:34:00,39.7,30.4,29.12,NNW,338,2.3,2.3,69,0.00,CLR,,0.00,WeatherDisplay:10.37,2013-10-25 13:34:00,
2013-10-25 08:35:00,39.7,30.0,29.12,NE,45,2.3,2.3,68,0.00,CLR,,0.00,WeatherDisplay:10.37,2013-10-25 13:35:00,
2013-10-25 08:36:00,39.7,30.0,29.12,NE,45,2.3,2.3,68,0.00,CLR,,0.00,WeatherDisplay:10.37,2013-10-25 13:36:00,
2013-10-25 08:37:00,39.9,30.6,29.12,NE,45,2.3,2.3,69,0.00,CLR,,0.00,WeatherDisplay:10.37,2013-10-25 13:37:00,
2013-10-25 08:39:00,40.5,30.4,29.12,NE,45,1.4,1.4,67,0.00,CLR,,0.00,WeatherDisplay:10.37,2013-10-25 13:39:00,
2013-10-25 08:40:00,40.5,30.4,29.12,NE,45,1.4,1.4,67,0.00,CLR,,0.00,WeatherDisplay:10.37,2013-10-25 13:40:00,
2013-10-25 08:41:00,40.6,30.2,29.12,NE,45,1.6,1.6,66,0.00,CLR,,0.00,WeatherDisplay:10.37,2013-10-25 13:41:00,
2013-10-25 08:42:00,41.0,30.5,29.12,NE,45,1.2,1.4,66,0.00,CLR,,0.00,WeatherDisplay:10.37,2013-10-25 13:42:00,
2013-10-25 08:44:00,41.4,30.5,29.12,NE,45,0.0,0.0,65,0.00,CLR,,0.00,WeatherDisplay:10.37,2013-10-25 13:44:00,
2013-10-25 08:45:00,41.7,30.4,29.12,NE,45,0.0,0.0,64,0.00,CLR,,0.00,WeatherDisplay:10.37,2013-10-25 13:45:00,
2013-10-25 08:46:00,42.1,30.8,29.12,NE,45,1.2,1.2,64,0.00,CLR,,0.00,WeatherDisplay:10.37,2013-10-25 13:46:00,
2013-10-25 08:47:00,42.1,30.8,29.12,NE,45,1.2,1.2,64,0.00,CLR,,0.00,WeatherDisplay:10.37,2013-10-25 13:47:00,
2013-10-25 08:49:00,42.6,30.5,29.12,NE,45,0.0,0.0,62,0.00,CLR,,0.00,WeatherDisplay:10.37,2013-10-25 13:49:00,
2013-10-25 08:50:00,42.8,31.1,29.12,NE,45,0.0,0.0,63,0.00,CLR,,0.00,WeatherDisplay:10.37,2013-10-25 13:50:00,
2013-10-25 08:51:00,43.0,30.4,29.12,NE,45,1.4,0.0,61,0.00,CLR,,0.00,WeatherDisplay:10.37,2013-10-25 13:51:00,
2013-10-25 08:52:00,43.0,30.4,29.12,NE,45,1.4,0.0,61,0.00,CLR,,0.00,WeatherDisplay:10.37,2013-10-25 13:52:00,
2013-10-25 08:54:00,42.3,28.1,29.12,North,0,3.5,3.5,57,0.00,CLR,,0.00,WeatherDisplay:10.37,2013-10-25 13:54:00,
2013-10-25 08:55:00,41.5,26.1,29.12,WNW,292,3.5,3.5,54,0.00,CLR,,0.00,WeatherDisplay:10.37,2013-10-25 13:55:00,
2013-10-25 08:56:00,42.1,27.5,29.12,NNW,338,2.3,0.0,56,0.00,CLR,,0.00,WeatherDisplay:10.37,2013-10-25 13:56:00,
2013-10-25 08:57:00,42.1,27.5,29.12,NNW,338,2.3,0.0,56,0.00,CLR,,0.00,WeatherDisplay:10.37,2013-10-25 13:57:00,
2013-10-25 09:00:00,42.6,27.6,29.12,NNW,338,2.3,2.3,55,0.00,CLR,,0.00,WeatherDisplay:10.37,2013-10-25 14:00:00,
2013-10-25 09:01:00,43.7,27.7,29.12,WNW,292,2.3,2.3,53,0.00,CLR,,0.00,WeatherDisplay:10.37,2013-10-25 14:01:00,
2013-10-25 09:02:00,43.9,27.8,29.12,WSW,248,2.3,2.3,53,0.00,CLR,,0.00,WeatherDisplay:10.37,2013-10-25 14:02:00,
2013-10-25 09:05:00,44.6,28.5,29.12,WNW,292,3.5,3.5,53,0.00,CLR,,0.00,WeatherDisplay:10.37,2013-10-25 14:05:00,
2013-10-25 09:06:00,44.6,28.0,29.12,WSW,248,3.8,3.8,52,0.00,CLR,,0.00,WeatherDisplay:10.37,2013-10-25 14:06:00,
2013-10-25 09:07:00,44.6,26.6,29.12,WNW,292,4.6,4.6,49,0.00,CLR,,0.00,WeatherDisplay:10.37,2013-10-25 14:07:00,
2013-10-25 09:08:00,44.6,26.6,29.12,SW,225,3.5,3.5,49,0.00,CLR,,0.00,WeatherDisplay:10.37,2013-10-25 14:08:00,
2013-10-25 09:10:00,45.0,27.4,29.12,North,0,2.3,2.4,50,0.00,CLR,,0.00,WeatherDisplay:10.37,2013-10-25 14:10:00,
2013-10-25 09:11:00,45.1,27.6,29.12,WSW,248,2.9,2.9,50,0.00,CLR,,0.00,WeatherDisplay:10.37,2013-10-25 14:11:00,
2013-10-25 09:12:00,45.1,27.1,29.12,WSW,248,2.3,2.3,49,0.00,CLR,,0.00,WeatherDisplay:10.37,2013-10-25 14:12:00,
2013-10-25 09:13:00,45.0,26.9,29.12,NW,315,2.3,2.3,49,0.00,CLR,,0.00,WeatherDisplay:10.37,2013-10-25 14:13:00,
2013-10-25 09:14:00,45.0,27.4,29.12,WNW,292,1.2,0.0,50,0.00,CLR,,0.00,WeatherDisplay:10.37,2013-10-25 14:14:00,
2013-10-25 09:15:00,45.5,27.9,29.12,WNW,292,1.6,0.0,50,0.00,CLR,,0.00,WeatherDisplay:10.37,2013-10-25 14:15:00,
2013-10-25 09:17:00,45.9,28.3,29.12,North,0,2.3,2.3,50,0.00,CLR,,0.00,WeatherDisplay:10.37,2013-10-25 14:17:00,
2013-10-25 09:18:00,45.5,26.9,29.12,West,270,1.6,0.0,48,0.00,CLR,,0.00,WeatherDisplay:10.37,2013-10-25 14:18:00,
2013-10-25 09:19:00,45.3,26.8,29.12,South,180,2.3,2.3,48,0.00,CLR,,0.00,WeatherDisplay:10.37,2013-10-25 14:19:00,
2013-10-25 09:21:00,45.1,26.6,29.12,West,270,2.3,2.3,48,0.00,CLR,,0.00,WeatherDisplay:10.37,2013-10-25 14:21:00,
2013-10-25 09:22:00,45.3,26.8,29.12,South,180,1.2,1.4,48,0.00,CLR,,0.00,WeatherDisplay:10.37,2013-10-25 14:22:00,
2013-10-25 09:23:00,45.9,27.8,29.12,WSW,248,2.6,2.6,49,0.00,CLR,,0.00,WeatherDisplay:10.37,2013-10-25 14:23:00,
2013-10-25 09:24:00,45.3,26.8,29.12,WSW,248,4.7,4.7,48,0.00,CLR,,0.00,WeatherDisplay:10.37,2013-10-25 14:24:00,
2013-10-25 09:25:00,45.3,26.8,29.12,West,270,6.2,6.2,48,0.00,CLR,,0.00,WeatherDisplay:10.37,2013-10-25 14:25:00,
2013-10-25 09:26:00,45.1,25.6,29.12,SSW,202,5.8,5.8,46,0.00,CLR,,0.00,WeatherDisplay:10.37,2013-10-25 14:26:00,
2013-10-25 09:27:00,45.1,25.6,29.12,WSW,248,1.2,1.2,46,0.00,CLR,,0.00,WeatherDisplay:10.37,2013-10-25 14:27:00,
2013-10-25 09:28:00,45.5,26.9,29.12,SW,225,3.5,3.5,48,0.00,CLR,,0.00,WeatherDisplay:10.37,2013-10-25 14:28:00,
2013-10-25 09:30:00,46.0,27.4,29.12,WSW,248,2.2,2.2,48,0.00,CLR,,0.00,WeatherDisplay:10.37,2013-10-25 14:30:00,
2013-10-25 09:31:00,46.0,27.4,29.12,West,270,3.6,3.6,48,0.00,CLR,,0.00,WeatherDisplay:10.37,2013-10-25 14:31:00,
2013-10-25 09:32:00,45.5,25.9,29.12,SW,225,3.5,3.5,46,0.00,CLR,,0.00,WeatherDisplay:10.37,2013-10-25 14:32:00,
2013-10-25 09:33:00,45.3,25.7,29.12,NW,315,3.5,3.5,46,0.00,CLR,,0.00,WeatherDisplay:10.37,2013-10-25 14:33:00,
2013-10-25 09:35:00,45.5,25.9,29.12,WSW,248,3.5,3.5,46,0.00,CLR,,0.00,WeatherDisplay:10.37,2013-10-25 14:35:00,
2013-10-25 09:36:00,45.5,25.9,29.12,West,270,3.5,3.5,46,0.00,CLR,,0.00,WeatherDisplay:10.37,2013-10-25 14:36:00,
2013-10-25 09:37:00,45.5,25.9,29.12,South,180,2.3,2.3,46,0.00,CLR,,0.00,WeatherDisplay:10.37,2013-10-25 14:37:00,
2013-10-25 09:38:00,45.9,26.7,29.12,West,270,3.8,3.8,47,0.00,CLR,,0.00,WeatherDisplay:10.37,2013-10-25 14:38:00,
2013-10-25 09:40:00,45.3,25.7,29.12,West,270,3.5,3.5,46,0.00,CLR,,0.00,WeatherDisplay:10.37,2013-10-25 14:40:00,
2013-10-25 09:41:00,45.3,25.7,29.12,West,270,1.2,0.0,46,0.00,CLR,,0.00,WeatherDisplay:10.37,2013-10-25 14:41:00,
2013-10-25 09:42:00,46.0,26.9,29.12,SSW,202,2.6,2.6,47,0.00,CLR,,0.00,WeatherDisplay:10.37,2013-10-25 14:42:00,
2013-10-25 09:43:00,46.0,26.9,29.12,NNE,22,2.3,2.3,47,0.00,CLR,,0.00,WeatherDisplay:10.37,2013-10-25 14:43:00,
2013-10-25 09:45:00,46.0,26.4,29.12,SW,225,3.5,3.5,46,0.00,CLR,,0.00,WeatherDisplay:10.37,2013-10-25 14:45:00,
2013-10-25 09:46:00,46.2,26.6,29.12,NW,315,3.5,3.5,46,0.00,CLR,,0.00,WeatherDisplay:10.37,2013-10-25 14:46:00,
2013-10-25 09:47:00,46.4,26.7,29.12,NW,315,3.5,3.5,46,0.00,CLR,,0.00,WeatherDisplay:10.37,2013-10-25 14:47:00,
2013-10-25 09:48:00,46.6,27.4,29.12,WNW,292,1.2,0.0,47,0.00,CLR,,0.00,WeatherDisplay:10.37,2013-10-25 14:48:00,
2013-10-25 09:49:00,46.9,27.7,29.12,West,270,2.0,0.0,47,0.00,CLR,,0.00,WeatherDisplay:10.37,2013-10-25 14:49:00,
2013-10-25 09:50:00,47.1,27.4,29.12,SW,225,2.3,2.6,46,0.00,CLR,,0.00,WeatherDisplay:10.37,2013-10-25 14:50:00,
2013-10-25 09:51:00,46.8,26.0,29.12,West,270,4.9,4.9,44,0.00,CLR,,0.00,WeatherDisplay:10.37,2013-10-25 14:51:00,
2013-10-25 09:53:00,46.2,25.5,29.12,West,270,3.5,3.5,44,0.00,CLR,,0.00,WeatherDisplay:10.37,2013-10-25 14:53:00,
2013-10-25 09:54:00,46.0,25.9,29.12,SW,225,4.6,4.6,45,0.00,CLR,,0.00,WeatherDisplay:10.37,2013-10-25 14:54:00,
2013-10-25 09:56:00,45.9,25.7,29.12,West,270,3.5,3.5,45,0.00,CLR,,0.00,WeatherDisplay:10.37,2013-10-25 14:56:00,
2013-10-25 09:58:00,46.0,25.9,29.12,SW,225,3.5,3.5,45,0.00,CLR,,0.00,WeatherDisplay:10.37,2013-10-25 14:58:00,
2013-10-25 09:59:00,46.0,25.9,29.12,SW,225,3.5,3.5,45,0.00,CLR,,0.00,WeatherDisplay:10.37,2013-10-25 14:59:00,
2013-10-25 10:01:00,46.2,26.6,29.12,SE,135,3.5,3.5,46,0.00,CLR,,0.00,WeatherDisplay:10.37,2013-10-25 15:01:00,
2013-10-25 10:04:00,46.9,27.7,29.12,NNW,338,2.4,2.4,47,0.00,CLR,,0.00,WeatherDisplay:10.37,2013-10-25 15:04:00,
2013-10-25 10:06:00,47.1,27.4,29.12,West,270,2.3,2.3,46,0.00,CLR,,0.00,WeatherDisplay:10.37,2013-10-25 15:06:00,
2013-10-25 10:09:00,46.9,27.2,29.12,West,270,2.4,2.4,46,0.00,CLR,,0.00,WeatherDisplay:10.37,2013-10-25 15:09:00,
2013-10-25 10:11:00,46.0,25.9,29.12,NE,45,3.5,3.5,45,0.00,CLR,,0.00,WeatherDisplay:10.37,2013-10-25 15:11:00,
2013-10-25 10:12:00,46.0,26.4,29.12,WSW,248,3.5,3.5,46,0.00,CLR,,0.00,WeatherDisplay:10.37,2013-10-25 15:12:00,
2013-10-25 10:14:00,46.4,26.7,29.12,SSW,202,2.3,2.3,46,0.00,CLR,,0.00,WeatherDisplay:10.37,2013-10-25 15:14:00,
2013-10-25 10:15:00,46.6,26.9,29.12,SW,225,2.3,2.3,46,0.00,CLR,,0.00,WeatherDisplay:10.37,2013-10-25 15:15:00,
2013-10-25 10:17:00,46.8,27.0,29.12,West,270,3.5,3.5,46,0.00,CLR,,0.00,WeatherDisplay:10.37,2013-10-25 15:17:00,
2013-10-25 10:18:00,46.8,26.5,29.12,West,270,5.8,5.8,45,0.00,CLR,,0.00,WeatherDisplay:10.37,2013-10-25 15:18:00,
2013-10-25 10:19:00,46.8,27.0,29.12,West,270,3.5,3.5,46,0.00,CLR,,0.00,WeatherDisplay:10.37,2013-10-25 15:19:00,
2013-10-25 10:20:00,46.8,26.5,29.12,South,180,3.6,3.6,45,0.00,CLR,,0.00,WeatherDisplay:10.37,2013-10-25 15:20:00,
2013-10-25 10:22:00,46.8,27.0,29.12,WNW,292,2.3,2.3,46,0.00,CLR,,0.00,WeatherDisplay:10.37,2013-10-25 15:22:00,
2013-10-25 10:23:00,46.2,26.6,29.12,SW,225,3.5,3.5,46,0.00,CLR,,0.00,WeatherDisplay:10.37,2013-10-25 15:23:00,
2013-10-25 10:24:00,46.0,25.9,29.12,SSW,202,3.5,3.5,45,0.00,CLR,,0.00,WeatherDisplay:10.37,2013-10-25 15:24:00,
2013-10-25 10:25:00,46.0,25.9,29.12,North,0,3.6,3.6,45,0.00,CLR,,0.00,WeatherDisplay:10.37,2013-10-25 15:25:00,
2013-10-25 10:27:00,46.4,26.7,29.12,SSE,158,2.3,2.3,46,0.00,CLR,,0.00,WeatherDisplay:10.37,2013-10-25 15:27:00,
2013-10-25 10:28:00,46.4,26.7,29.12,South,180,3.5,3.5,46,0.00,CLR,,0.00,WeatherDisplay:10.37,2013-10-25 15:28:00,
2013-10-25 10:29:00,46.9,26.7,29.12,West,270,3.5,3.5,45,0.00,CLR,,0.00,WeatherDisplay:10.37,2013-10-25 15:29:00,
2013-10-25 10:30:00,46.8,27.1,29.12,SW,229,2.0,4.0,46,0.00,CLR,,0.00,WeatherDisplay:10.37,2013-10-25 15:30:00,
2013-10-25 10:32:00,47.1,25.7,29.12,West,270,6.9,6.9,43,0.00,CLR,,0.00,WeatherDisplay:10.37,2013-10-25 15:32:00,
2013-10-25 10:33:00,47.3,25.9,29.12,North,0,5.8,5.8,43,0.00,CLR,,0.00,WeatherDisplay:10.37,2013-10-25 15:33:00,
2013-10-25 10:34:00,47.5,26.6,29.12,SSE,158,2.3,0.0,44,0.00,CLR,,0.00,WeatherDisplay:10.37,2013-10-25 15:34:00,
2013-10-25 10:35:00,47.5,26.6,29.12,WSW,248,6.9,0.0,44,0.00,CLR,,0.00,WeatherDisplay:10.37,2013-10-25 15:35:00,
2013-10-25 10:36:00,47.1,25.7,29.12,West,270,6.9,6.9,43,0.00,CLR,,0.00,WeatherDisplay:10.37,2013-10-25 15:36:00,
2013-10-25 10:38:00,46.9,25.6,29.12,West,270,7.1,7.1,43,0.00,CLR,,0.00,WeatherDisplay:10.37,2013-10-25 15:38:00,
2013-10-25 10:39:00,46.8,24.9,29.12,West,270,6.9,6.9,42,0.00,CLR,,0.00,WeatherDisplay:10.37,2013-10-25 15:39:00,
2013-10-25 10:40:00,46.8,25.4,29.09,West,270,8.1,8.1,43,0.00,CLR,,0.00,WeatherDisplay:10.37,2013-10-25 15:40:00,
2013-10-25 10:41:00,46.4,23.9,29.09,WSW,248,9.2,9.2,41,0.00,CLR,,0.00,WeatherDisplay:10.37,2013-10-25 15:41:00,
2013-10-25 10:44:00,46.0,24.8,29.09,WSW,248,5.8,5.8,43,0.00,CLR,,0.00,WeatherDisplay:10.37,2013-10-25 15:44:00,
2013-10-25 10:45:00,45.9,24.6,29.09,South,180,8.1,8.1,43,0.00,CLR,,0.00,WeatherDisplay:10.37,2013-10-25 15:45:00,
2013-10-25 10:46:00,45.9,25.2,29.09,South,180,8.1,8.1,44,0.00,CLR,,0.00,WeatherDisplay:10.37,2013-10-25 15:46:00,
2013-10-25 10:49:00,46.8,26.0,29.09,West,270,3.5,3.5,44,0.00,CLR,,0.00,WeatherDisplay:10.37,2013-10-25 15:49:00,
2013-10-25 10:50:00,46.8,26.0,29.09,West,270,4.6,4.6,44,0.00,CLR,,0.00,WeatherDisplay:10.37,2013-10-25 15:50:00,
2013-10-25 10:51:00,46.8,25.4,29.09,SW,225,4.6,4.6,43,0.00,CLR,,0.00,WeatherDisplay:10.37,2013-10-25 15:51:00,
2013-10-25 10:54:00,46.6,25.3,29.09,North,0,4.6,4.6,43,0.00,CLR,,0.00,WeatherDisplay:10.37,2013-10-25 15:54:00,
2013-10-25 10:55:00,46.6,25.3,29.09,WNW,292,4.6,4.6,43,0.00,CLR,,0.00,WeatherDisplay:10.37,2013-10-25 15:55:00,
2013-10-25 10:56:00,46.6,25.3,29.09,West,270,5.8,5.8,43,0.00,CLR,,0.00,WeatherDisplay:10.37,2013-10-25 15:56:00,
2013-10-25 10:57:00,46.6,25.8,29.09,WSW,248,5.8,5.8,44,0.00,CLR,,0.00,WeatherDisplay:10.37,2013-10-25 15:57:00,
2013-10-25 10:59:00,46.9,26.7,29.09,WSW,248,3.5,3.5,45,0.00,CLR,,0.00,WeatherDisplay:10.37,2013-10-25 15:59:00,
2013-10-25 11:00:00,46.9,26.7,29.09,South,180,3.5,3.5,45,0.00,CLR,,0.00,WeatherDisplay:10.37,2013-10-25 16:00:00,
2013-10-25 11:01:00,47.3,26.5,29.09,WSW,248,4.6,4.6,44,0.00,CLR,,0.00,WeatherDisplay:10.37,2013-10-25 16:01:00,
2013-10-25 11:02:00,47.3,26.5,29.09,NW,315,4.6,4.6,44,0.00,CLR,,0.00,WeatherDisplay:10.37,2013-10-25 16:02:00,
2013-10-25 11:05:00,48.2,26.7,29.09,SW,225,3.5,3.5,43,0.00,CLR,,0.00,WeatherDisplay:10.37,2013-10-25 16:05:00,
2013-10-25 11:06:00,48.2,26.7,29.09,NW,315,2.3,2.6,43,0.00,CLR,,0.00,WeatherDisplay:10.37,2013-10-25 16:06:00,
2013-10-25 11:07:00,48.0,26.6,29.09,NW,315,5.8,5.8,43,0.00,CLR,,0.00,WeatherDisplay:10.37,2013-10-25 16:07:00,
2013-10-25 11:11:00,47.7,25.7,29.09,West,270,6.9,6.9,42,0.00,CLR,,0.00,WeatherDisplay:10.37,2013-10-25 16:11:00,
2013-10-25 11:12:00,48.4,26.3,29.09,SSW,202,4.6,4.6,42,0.00,CLR,,0.00,WeatherDisplay:10.37,2013-10-25 16:12:00,
2013-10-25 11:16:00,46.9,24.4,29.09,NNE,22,8.1,8.1,41,0.00,CLR,,0.00,WeatherDisplay:10.37,2013-10-25 16:16:00,
2013-10-25 11:17:00,46.9,24.4,29.09,SSE,158,8.1,8.1,41,0.00,CLR,,0.00,WeatherDisplay:10.37,2013-10-25 16:17:00,
2013-10-25 11:18:00,46.8,24.3,29.09,NNW,338,6.9,6.9,41,0.00,CLR,,0.00,WeatherDisplay:10.37,2013-10-25 16:18:00,
2013-10-25 11:21:00,46.8,24.9,29.09,WSW,248,5.8,5.8,42,0.00,CLR,,0.00,WeatherDisplay:10.37,2013-10-25 16:21:00,
2013-10-25 11:22:00,47.3,25.9,29.09,East,90,3.5,3.5,43,0.00,CLR,,0.00,WeatherDisplay:10.37,2013-10-25 16:22:00,
2013-10-25 11:23:00,47.3,25.3,29.09,NNW,338,2.3,2.6,42,0.00,CLR,,0.00,WeatherDisplay:10.37,2013-10-25 16:23:00,
2013-10-25 11:26:00,48.4,26.3,29.09,SSE,158,5.8,5.8,42,0.00,CLR,,0.00,WeatherDisplay:10.37,2013-10-25 16:26:00,
2013-10-25 11:27:00,48.0,26.0,29.09,SE,135,3.5,3.5,42,0.00,CLR,,0.00,WeatherDisplay:10.37,2013-10-25 16:27:00,
2013-10-25 11:28:00,48.0,26.0,29.09,SE,135,3.5,3.5,42,0.00,CLR,,0.00,WeatherDisplay:10.37,2013-10-25 16:28:00,
2013-10-25 11:30:00,48.2,26.2,29.09,North,0,3.8,3.8,42,0.00,CLR,,0.00,WeatherDisplay:10.37,2013-10-25 16:30:00,
2013-10-25 11:31:00,48.0,25.4,29.09,West,270,5.8,5.8,41,0.00,CLR,,0.00,WeatherDisplay:10.37,2013-10-25 16:31:00,
2013-10-25 11:33:00,48.0,25.4,29.09,NW,315,10.2,10.2,41,0.00,CLR,,0.00,WeatherDisplay:10.37,2013-10-25 16:33:00,
2013-10-25 11:35:00,47.5,23.8,29.09,West,276,6.0,10.0,39,0.00,CLR,,0.00,WeatherDisplay:10.37,2013-10-25 16:35:00,
2013-10-25 11:36:00,48.0,24.8,29.09,SW,225,5.8,5.8,40,0.00,CLR,,0.00,WeatherDisplay:10.37,2013-10-25 16:36:00,
2013-10-25 11:38:00,47.7,24.5,29.09,ESE,112,5.8,5.8,40,0.00,CLR,,0.00,WeatherDisplay:10.37,2013-10-25 16:38:00,
2013-10-25 11:39:00,47.3,24.2,29.09,South,180,8.1,8.1,40,0.00,CLR,,0.00,WeatherDisplay:10.37,2013-10-25 16:39:00,
2013-10-25 11:40:00,47.3,24.2,29.09,WNW,292,3.6,3.6,40,0.00,CLR,,0.00,WeatherDisplay:10.37,2013-10-25 16:40:00,
2013-10-25 11:41:00,47.3,23.6,29.09,SSW,202,5.8,6.0,39,0.00,CLR,,0.00,WeatherDisplay:10.37,2013-10-25 16:41:00,
2013-10-25 11:42:00,47.3,23.6,29.09,SSW,202,9.2,9.2,39,0.00,CLR,,0.00,WeatherDisplay:10.37,2013-10-25 16:42:00,
2013-10-25 11:43:00,47.5,24.3,29.09,WSW,248,5.8,5.8,40,0.00,CLR,,0.00,WeatherDisplay:10.37,2013-10-25 16:43:00,
2013-10-25 11:44:00,47.3,24.2,29.09,SSE,158,5.8,5.8,40,0.00,CLR,,0.00,WeatherDisplay:10.37,2013-10-25 16:44:00,
2013-10-25 11:45:00,47.7,24.5,29.09,West,270,8.1,8.1,40,0.00,CLR,,0.00,WeatherDisplay:10.37,2013-10-25 16:45:00,
2013-10-25 11:46:00,47.7,24.5,29.09,WSW,248,8.1,8.1,40,0.00,CLR,,0.00,WeatherDisplay:10.37,2013-10-25 16:46:00,
2013-10-25 11:47:00,47.5,24.3,29.09,WSW,248,8.1,8.1,40,0.00,CLR,,0.00,WeatherDisplay:10.37,2013-10-25 16:47:00,
2013-10-25 11:48:00,47.5,23.7,29.09,NNW,338,8.1,8.1,39,0.00,CLR,,0.00,WeatherDisplay:10.37,2013-10-25 16:48:00,
2013-10-25 11:49:00,47.8,24.7,29.09,East,90,5.8,5.8,40,0.00,CLR,,0.00,WeatherDisplay:10.37,2013-10-25 16:49:00,
2013-10-25 11:50:00,48.6,25.3,29.09,WSW,248,5.8,5.8,40,0.00,CLR,,0.00,WeatherDisplay:10.37,2013-10-25 16:50:00,
2013-10-25 11:52:00,48.4,24.5,29.09,WSW,248,6.9,6.9,39,0.00,CLR,,0.00,WeatherDisplay:10.37,2013-10-25 16:52:00,
2013-10-25 11:53:00,48.4,24.5,29.09,SSW,202,6.9,6.9,39,0.00,CLR,,0.00,WeatherDisplay:10.37,2013-10-25 16:53:00,
2013-10-25 11:54:00,48.4,24.5,29.09,SSW,202,4.6,4.6,39,0.00,CLR,,0.00,WeatherDisplay:10.37,2013-10-25 16:54:00,
2013-10-25 11:56:00,48.4,24.5,29.06,WSW,248,7.8,7.8,39,0.00,CLR,,0.00,WeatherDisplay:10.37,2013-10-25 16:56:00,
2013-10-25 11:57:00,48.9,25.0,29.06,WNW,292,8.1,8.1,39,0.00,CLR,,0.00,WeatherDisplay:10.37,2013-10-25 16:57:00,
2013-10-25 11:58:00,48.9,24.4,29.06,WSW,248,6.9,6.9,38,0.00,CLR,,0.00,WeatherDisplay:10.37,2013-10-25 16:58:00,
2013-10-25 11:59:00,48.9,24.4,29.06,NNW,338,6.9,6.9,38,0.00,CLR,,0.00,WeatherDisplay:10.37,2013-10-25 16:59:00,
2013-10-25 12:01:00,49.1,25.2,29.06,WSW,248,5.8,5.8,39,0.00,CLR,,0.00,WeatherDisplay:10.37,2013-10-25 17:01:00,
2013-10-25 12:02:00,49.1,24.6,29.06,NW,315,10.4,10.4,38,0.00,CLR,,0.00,WeatherDisplay:10.37,2013-10-25 17:02:00,
2013-10-25 12:03:00,49.1,24.6,29.06,SSW,202,10.4,10.4,38,0.00,CLR,,0.00,WeatherDisplay:10.37,2013-10-25 17:03:00,
2013-10-25 12:04:00,49.5,24.9,29.06,West,270,10.4,10.4,38,0.00,CLR,,0.00,WeatherDisplay:10.37,2013-10-25 17:04:00,
2013-10-25 12:06:00,49.3,24.7,29.06,West,270,5.8,5.8,38,0.00,CLR,,0.00,WeatherDisplay:10.37,2013-10-25 17:06:00,
2013-10-25 12:08:00,49.5,24.9,29.06,SSW,202,9.2,9.2,38,0.00,CLR,,0.00,WeatherDisplay:10.37,2013-10-25 17:08:00,
2013-10-25 12:09:00,49.3,24.7,29.06,West,270,9.7,9.7,38,0.00,CLR,,0.00,WeatherDisplay:10.37,2013-10-25 17:09:00,
2013-10-25 12:10:00,49.3,24.7,29.03,East,90,8.1,8.1,38,0.00,CLR,,0.00,WeatherDisplay:10.37,2013-10-25 17:10:00,
2013-10-25 12:11:00,49.5,24.9,29.03,WNW,292,5.8,5.8,38,0.00,CLR,,0.00,WeatherDisplay:10.37,2013-10-25 17:11:00,
2013-10-25 12:13:00,49.5,24.9,29.03,WSW,248,6.9,6.9,38,0.00,CLR,,0.00,WeatherDisplay:10.37,2013-10-25 17:13:00,
2013-10-25 12:14:00,49.5,24.9,29.03,NNW,338,6.9,6.9,38,0.00,CLR,,0.00,WeatherDisplay:10.37,2013-10-25 17:14:00,
2013-10-25 12:15:00,49.5,24.9,29.03,WNW,292,5.8,5.8,38,0.00,CLR,,0.00,WeatherDisplay:10.37,2013-10-25 17:15:00,
2013-10-25 12:18:00,49.1,23.9,29.03,WSW,248,10.4,10.4,37,0.00,CLR,,0.00,WeatherDisplay:10.37,2013-10-25 17:18:00,
2013-10-25 12:19:00,49.3,24.1,29.03,SSW,202,9.2,9.2,37,0.00,CLR,,0.00,WeatherDisplay:10.37,2013-10-25 17:19:00,
2013-10-25 12:20:00,49.5,24.2,29.03,WNW,292,5.8,5.9,37,0.00,CLR,,0.00,WeatherDisplay:10.37,2013-10-25 17:20:00,
2013-10-25 12:23:00,50.4,25.0,29.03,NW,315,3.5,3.5,37,0.00,CLR,,0.00,WeatherDisplay:10.37,2013-10-25 17:23:00,
2013-10-25 12:24:00,50.4,25.0,29.03,WSW,248,3.8,3.8,37,0.00,CLR,,0.00,WeatherDisplay:10.37,2013-10-25 17:24:00,
2013-10-25 12:25:00,50.2,24.9,29.03,NW,315,8.1,8.1,37,0.00,CLR,,0.00,WeatherDisplay:10.37,2013-10-25 17:25:00,
2013-10-25 12:29:00,49.5,24.2,29.03,WSW,248,6.9,6.9,37,0.00,CLR,,0.00,WeatherDisplay:10.37,2013-10-25 17:29:00,
2013-10-25 12:30:00,49.5,24.2,29.03,West,270,5.8,5.8,37,0.00,CLR,,0.00,WeatherDisplay:10.37,2013-10-25 17:30:00,
2013-10-25 12:31:00,49.3,24.1,29.03,West,270,6.9,6.9,37,0.00,CLR,,0.00,WeatherDisplay:10.37,2013-10-25 17:31:00,
2013-10-25 12:34:00,49.8,24.6,29.03,SSE,158,6.4,6.4,37,0.00,CLR,,0.00,WeatherDisplay:10.37,2013-10-25 17:34:00,
2013-10-25 12:35:00,50.0,24.7,29.03,SE,135,8.1,8.1,37,0.00,CLR,,0.00,WeatherDisplay:10.37,2013-10-25 17:35:00,
2013-10-25 12:36:00,49.8,24.6,29.03,WSW,248,10.4,10.4,37,0.00,CLR,,0.00,WeatherDisplay:10.37,2013-10-25 17:36:00,
2013-10-25 12:39:00,49.8,24.6,29.03,WSW,248,9.2,9.2,37,0.00,CLR,,0.00,WeatherDisplay:10.37,2013-10-25 17:39:00,
2013-10-25 12:40:00,50.0,24.1,29.00,SSW,202,8.1,8.1,36,0.00,CLR,,0.00,WeatherDisplay:10.37,2013-10-25 17:40:00,
2013-10-25 12:42:00,50.2,24.9,29.00,SSW,202,7.8,7.8,37,0.00,CLR,,0.00,WeatherDisplay:10.37,2013-10-25 17:42:00,
2013-10-25 12:45:00,50.0,24.1,29.00,WSW,248,8.1,8.1,36,0.00,CLR,,0.00,WeatherDisplay:10.37,2013-10-25 17:45:00,
2013-10-25 12:46:00,50.0,24.1,29.00,West,270,8.1,8.1,36,0.00,CLR,,0.00,WeatherDisplay:10.37,2013-10-25 17:46:00,
2013-10-25 12:47:00,49.8,24.6,29.00,SW,225,8.5,8.5,37,0.00,CLR,,0.00,WeatherDisplay:10.37,2013-10-25 17:47:00,
2013-10-25 12:50:00,50.5,24.5,29.00,South,180,5.8,5.8,36,0.00,CLR,,0.00,WeatherDisplay:10.37,2013-10-25 17:50:00,
2013-10-25 12:51:00,50.5,25.2,29.00,SW,225,5.8,5.8,37,0.00,CLR,,0.00,WeatherDisplay:10.37,2013-10-25 17:51:00,
2013-10-25 12:52:00,50.5,25.2,29.00,South,180,5.8,5.8,37,0.00,CLR,,0.00,WeatherDisplay:10.37,2013-10-25 17:52:00,
2013-10-25 12:55:00,50.9,25.5,29.00,West,270,5.8,5.8,37,0.00,CLR,,0.00,WeatherDisplay:10.37,2013-10-25 17:55:00,
2013-10-25 12:56:00,50.9,25.5,29.00,SW,225,5.8,5.8,37,0.00,CLR,,0.00,WeatherDisplay:10.37,2013-10-25 17:56:00,
2013-10-25 12:57:00,50.5,24.5,29.00,SSW,202,8.1,8.1,36,0.00,CLR,,0.00,WeatherDisplay:10.37,2013-10-25 17:57:00,
2013-10-25 13:01:00,50.9,25.5,29.00,SSE,158,6.9,6.9,37,0.00,CLR,,0.00,WeatherDisplay:10.37,2013-10-25 18:01:00,
2013-10-25 13:02:00,51.1,25.7,29.00,North,0,5.8,5.8,37,0.00,CLR,,0.00,WeatherDisplay:10.37,2013-10-25 18:02:00,
2013-10-25 13:06:00,51.3,25.2,29.00,WSW,248,4.6,4.6,36,0.00,CLR,,0.00,WeatherDisplay:10.37,2013-10-25 18:06:00,
2013-10-25 13:07:00,50.9,24.9,29.00,SSW,202,8.1,8.1,36,0.00,CLR,,0.00,WeatherDisplay:10.37,2013-10-25 18:07:00,
2013-10-25 13:11:00,51.1,25.0,29.00,WSW,248,5.8,5.8,36,0.00,CLR,,0.00,WeatherDisplay:10.37,2013-10-25 18:11:00,
2013-10-25 13:12:00,51.1,25.0,29.00,ESE,112,5.8,6.0,36,0.00,CLR,,0.00,WeatherDisplay:10.37,2013-10-25 18:12:00,
2013-10-25 13:16:00,50.5,24.5,29.00,WNW,292,8.1,8.1,36,0.00,CLR,,0.00,WeatherDisplay:10.37,2013-10-25 18:16:00,
2013-10-25 13:17:00,50.7,24.7,29.00,North,0,4.9,4.9,36,0.00,CLR,,0.00,WeatherDisplay:10.37,2013-10-25 18:17:00,
2013-10-25 13:18:00,50.7,24.7,29.00,SW,225,5.4,5.4,36,0.00,CLR,,0.00,WeatherDisplay:10.37,2013-10-25 18:18:00,
2013-10-25 13:21:00,51.1,25.0,29.00,South,180,9.2,9.2,36,0.00,CLR,,0.00,WeatherDisplay:10.37,2013-10-25 18:21:00,
2013-10-25 13:22:00,51.1,25.0,29.00,WNW,292,5.8,5.8,36,0.00,CLR,,0.00,WeatherDisplay:10.37,2013-10-25 18:22:00,
2013-10-25 13:23:00,50.9,24.9,29.00,WNW,292,6.9,6.9,36,0.00,CLR,,0.00,WeatherDisplay:10.37,2013-10-25 18:23:00,
2013-10-25 13:26:00,51.8,25.7,28.97,SE,135,9.2,9.2,36,0.00,CLR,,0.00,WeatherDisplay:10.37,2013-10-25 18:26:00,
2013-10-25 13:27:00,51.6,25.5,28.97,SSW,202,4.6,4.6,36,0.00,CLR,,0.00,WeatherDisplay:10.37,2013-10-25 18:27:00,
2013-10-25 13:29:00,52.2,26.0,28.97,WNW,292,4.6,4.6,36,0.00,CLR,,0.00,WeatherDisplay:10.37,2013-10-25 18:29:00,
2013-10-25 13:31:00,52.3,26.1,28.97,NE,45,6.9,6.9,36,0.00,CLR,,0.00,WeatherDisplay:10.37,2013-10-25 18:31:00,
2013-10-25 13:32:00,52.3,26.1,28.97,NE,45,6.9,6.9,36,0.00,CLR,,0.00,WeatherDisplay:10.37,2013-10-25 18:32:00,
2013-10-25 13:34:00,52.0,25.8,28.97,SW,225,5.8,5.8,36,0.00,CLR,,0.00,WeatherDisplay:10.37,2013-10-25 18:34:00,
2013-10-25 13:36:00,51.6,25.5,28.97,South,180,8.1,8.1,36,0.00,CLR,,0.00,WeatherDisplay:10.37,2013-10-25 18:36:00,
2013-10-25 13:37:00,51.6,25.5,28.97,South,180,5.8,5.9,36,0.00,CLR,,0.00,WeatherDisplay:10.37,2013-10-25 18:37:00,
2013-10-25 13:38:00,51.6,25.5,28.97,WSW,248,6.2,6.2,36,0.00,CLR,,0.00,WeatherDisplay:10.37,2013-10-25 18:38:00,
2013-10-25 13:39:00,51.3,25.2,28.97,SSW,202,10.5,10.5,36,0.00,CLR,,0.00,WeatherDisplay:10.37,2013-10-25 18:39:00,
2013-10-25 13:42:00,50.9,24.9,28.94,West,270,8.1,8.1,36,0.00,CLR,,0.00,WeatherDisplay:10.37,2013-10-25 18:42:00,
2013-10-25 13:43:00,51.3,25.2,28.94,SW,225,3.6,3.8,36,0.00,CLR,,0.00,WeatherDisplay:10.37,2013-10-25 18:43:00,
2013-10-25 13:45:00,51.4,25.3,28.94,West,270,8.1,8.1,36,0.00,CLR,,0.00,WeatherDisplay:10.37,2013-10-25 18:45:00,
2013-10-25 13:47:00,51.6,25.5,28.94,WSW,248,8.5,8.5,36,0.00,CLR,,0.00,WeatherDisplay:10.37,2013-10-25 18:47:00,
2013-10-25 13:48:00,51.6,25.5,28.94,SSW,202,10.4,10.4,36,0.00,CLR,,0.00,WeatherDisplay:10.37,2013-10-25 18:48:00,
2013-10-25 13:50:00,51.8,25.7,28.94,West,270,10.4,10.4,36,0.00,CLR,,0.00,WeatherDisplay:10.37,2013-10-25 18:50:00,
2013-10-25 13:52:00,51.6,25.5,28.94,West,270,5.8,5.8,36,0.00,CLR,,0.00,WeatherDisplay:10.37,2013-10-25 18:52:00,
2013-10-25 13:53:00,51.6,25.5,28.94,West,270,5.8,5.8,36,0.00,CLR,,0.00,WeatherDisplay:10.37,2013-10-25 18:53:00,
2013-10-25 13:54:00,51.6,26.2,28.94,SW,225,8.1,8.1,37,0.00,CLR,,0.00,WeatherDisplay:10.37,2013-10-25 18:54:00,
2013-10-25 13:55:00,51.6,26.2,28.97,WSW,248,4.6,4.9,37,0.00,CLR,,0.00,WeatherDisplay:10.37,2013-10-25 18:55:00,
2013-10-25 13:57:00,51.8,25.7,28.97,SW,225,5.8,5.8,36,0.00,CLR,,0.00,WeatherDisplay:10.37,2013-10-25 18:57:00,
2013-10-25 13:58:00,51.8,25.7,28.97,West,270,10.9,10.9,36,0.00,CLR,,0.00,WeatherDisplay:10.37,2013-10-25 18:58:00,
2013-10-25 13:59:00,51.4,25.3,28.97,SSE,158,11.5,11.5,36,0.00,CLR,,0.00,WeatherDisplay:10.37,2013-10-25 18:59:00,
2013-10-25 14:00:00,51.4,26.0,28.97,WSW,248,8.1,8.1,37,0.00,CLR,,0.00,WeatherDisplay:10.37,2013-10-25 19:00:00,
2013-10-25 14:02:00,51.6,25.5,28.97,SSW,202,10.4,10.4,36,0.00,CLR,,0.00,WeatherDisplay:10.37,2013-10-25 19:02:00,
2013-10-25 14:03:00,51.6,25.5,28.97,NW,315,6.9,6.9,36,0.00,CLR,,0.00,WeatherDisplay:10.37,2013-10-25 19:03:00,
2013-10-25 14:04:00,51.4,25.3,28.97,SSW,202,9.8,9.8,36,0.00,CLR,,0.00,WeatherDisplay:10.37,2013-10-25 19:04:00,
2013-10-25 14:05:00,51.4,25.3,28.97,South,180,6.4,6.4,36,0.00,CLR,,0.00,WeatherDisplay:10.37,2013-10-25 19:05:00,
2013-10-25 14:07:00,51.4,25.3,28.97,SW,225,12.1,12.1,36,0.00,CLR,,0.00,WeatherDisplay:10.37,2013-10-25 19:07:00,
2013-10-25 14:08:00,50.9,25.5,28.97,SSE,158,9.2,9.2,37,0.00,CLR,,0.00,WeatherDisplay:10.37,2013-10-25 19:08:00,
2013-10-25 14:10:00,51.1,25.7,28.97,SW,225,8.1,8.1,37,0.00,CLR,,0.00,WeatherDisplay:10.37,2013-10-25 19:10:00,
2013-10-25 14:11:00,50.9,25.5,28.97,ESE,112,10.4,10.4,37,0.00,CLR,,0.00,WeatherDisplay:10.37,2013-10-25 19:11:00,
2013-10-25 14:12:00,51.1,25.7,28.97,West,270,10.4,10.4,37,0.00,CLR,,0.00,WeatherDisplay:10.37,2013-10-25 19:12:00,
2013-10-25 14:13:00,51.1,25.7,28.97,West,270,10.4,10.4,37,0.00,CLR,,0.00,WeatherDisplay:10.37,2013-10-25 19:13:00,
2013-10-25 14:14:00,51.4,26.0,28.97,South,180,10.4,10.4,37,0.00,CLR,,0.00,WeatherDisplay:10.37,2013-10-25 19:14:00,
2013-10-25 14:15:00,51.5,26.1,28.97,SSW,209,2.0,10.0,37,0.00,CLR,,0.00,WeatherDisplay:10.37,2013-10-25 19:15:00,
2013-10-25 14:16:00,51.4,26.0,28.97,WSW,248,3.5,3.5,37,0.00,CLR,,0.00,WeatherDisplay:10.37,2013-10-25 19:16:00,
2013-10-25 14:17:00,51.3,25.8,28.97,WSW,248,7.8,7.8,37,0.00,CLR,,0.00,WeatherDisplay:10.37,2013-10-25 19:17:00,
2013-10-25 14:18:00,50.9,25.5,28.97,SW,225,10.4,10.4,37,0.00,CLR,,0.00,WeatherDisplay:10.37,2013-10-25 19:18:00,
2013-10-25 14:19:00,50.9,25.5,28.97,South,180,10.4,10.4,37,0.00,CLR,,0.00,WeatherDisplay:10.37,2013-10-25 19:19:00,
2013-10-25 14:20:00,50.9,25.5,28.97,South,180,6.0,6.0,37,0.00,CLR,,0.00,WeatherDisplay:10.37,2013-10-25 19:20:00,
2013-10-25 14:21:00,50.9,25.5,28.97,ESE,112,8.1,8.1,37,0.00,CLR,,0.00,WeatherDisplay:10.37,2013-10-25 19:21:00,
2013-10-25 14:23:00,51.1,25.7,28.97,SSW,202,6.9,6.9,37,0.00,CLR,,0.00,WeatherDisplay:10.37,2013-10-25 19:23:00,
2013-10-25 14:24:00,51.3,25.8,28.97,SSW,202,6.9,6.9,37,0.00,CLR,,0.00,WeatherDisplay:10.37,2013-10-25 19:24:00,
2013-10-25 14:25:00,51.1,25.7,28.94,South,180,5.8,5.8,37,0.00,CLR,,0.00,WeatherDisplay:10.37,2013-10-25 19:25:00,
2013-10-25 14:26:00,51.1,25.7,28.94,SSE,158,5.8,5.8,37,0.00,CLR,,0.00,WeatherDisplay:10.37,2013-10-25 19:26:00,
2013-10-25 14:27:00,51.4,26.0,28.94,South,180,6.9,6.9,37,0.00,CLR,,0.00,WeatherDisplay:10.37,2013-10-25 19:27:00,
2013-10-25 14:29:00,51.8,25.7,28.94,SW,225,6.9,6.9,36,0.00,CLR,,0.00,WeatherDisplay:10.37,2013-10-25 19:29:00,
2013-10-25 14:30:00,51.8,25.7,28.94,WNW,292,8.1,8.1,36,0.00,CLR,,0.00,WeatherDisplay:10.37,2013-10-25 19:30:00,
2013-10-25 14:31:00,51.6,26.2,28.94,East,90,6.9,6.9,37,0.00,CLR,,0.00,WeatherDisplay:10.37,2013-10-25 19:31:00,
2013-10-25 14:32:00,51.6,26.2,28.94,ESE,112,4.6,4.6,37,0.00,CLR,,0.00,WeatherDisplay:10.37,2013-10-25 19:32:00,
2013-10-25 14:34:00,51.8,25.7,28.94,North,0,4.6,4.6,36,0.00,CLR,,0.00,WeatherDisplay:10.37,2013-10-25 19:34:00,
2013-10-25 14:35:00,51.8,25.7,28.94,SSW,202,5.8,5.8,36,0.00,CLR,,0.00,WeatherDisplay:10.37,2013-10-25 19:35:00,
2013-10-25 14:36:00,52.0,25.8,28.94,West,270,3.5,4.0,36,0.00,CLR,,0.00,WeatherDisplay:10.37,2013-10-25 19:36:00,
2013-10-25 14:37:00,51.8,25.7,28.94,WSW,248,11.5,11.5,36,0.00,CLR,,0.00,WeatherDisplay:10.37,2013-10-25 19:37:00,
2013-10-25 14:39:00,51.6,26.2,28.94,WNW,292,12.3,12.3,37,0.00,CLR,,0.00,WeatherDisplay:10.37,2013-10-25 19:39:00,
2013-10-25 14:40:00,51.4,26.0,28.91,SSW,202,9.2,9.2,37,0.00,CLR,,0.00,WeatherDisplay:10.37,2013-10-25 19:40:00,
2013-10-25 14:42:00,51.4,26.0,28.91,SW,225,8.1,8.1,37,0.00,CLR,,0.00,WeatherDisplay:10.37,2013-10-25 19:42:00,
2013-10-25 14:44:00,51.6,26.2,28.91,SSW,202,9.2,9.2,37,0.00,CLR,,0.00,WeatherDisplay:10.37,2013-10-25 19:44:00,
2013-10-25 14:45:00,51.6,26.2,28.91,WSW,248,9.2,9.2,37,0.00,CLR,,0.00,WeatherDisplay:10.37,2013-10-25 19:45:00,
2013-10-25 14:49:00,51.4,26.0,28.91,West,270,8.1,8.1,37,0.00,CLR,,0.00,WeatherDisplay:10.37,2013-10-25 19:49:00,
2013-10-25 14:50:00,51.1,25.7,28.91,West,270,5.8,5.8,37,0.00,CLR,,0.00,WeatherDisplay:10.37,2013-10-25 19:50:00,
2013-10-25 14:54:00,51.1,25.7,28.91,SSW,202,6.9,6.9,37,0.00,CLR,,0.00,WeatherDisplay:10.37,2013-10-25 19:54:00,
2013-10-25 14:55:00,51.1,25.7,28.91,SW,225,10.2,10.2,37,0.00,CLR,,0.00,WeatherDisplay:10.37,2013-10-25 19:55:00,
2013-10-25 14:56:00,51.1,25.7,28.91,WSW,248,10.4,10.4,37,0.00,CLR,,0.00,WeatherDisplay:10.37,2013-10-25 19:56:00,
2013-10-25 14:59:00,51.8,25.7,28.91,SW,225,5.8,5.8,36,0.00,CLR,,0.00,WeatherDisplay:10.37,2013-10-25 19:59:00,
2013-10-25 15:00:00,52.0,25.8,28.91,WSW,248,6.4,6.4,36,0.00,CLR,,0.00,WeatherDisplay:10.37,2013-10-25 20:00:00,
2013-10-25 15:01:00,52.2,26.0,28.91,WSW,248,8.1,8.1,36,0.00,CLR,,0.00,WeatherDisplay:10.37,2013-10-25 20:01:00,
2013-10-25 15:02:00,52.2,26.0,28.91,South,180,5.8,5.8,36,0.00,CLR,,0.00,WeatherDisplay:10.37,2013-10-25 20:02:00,
2013-10-25 15:04:00,52.3,26.1,28.91,WSW,248,10.4,10.4,36,0.00,CLR,,0.00,WeatherDisplay:10.37,2013-10-25 20:04:00,
2013-10-25 15:05:00,52.3,26.1,28.91,WSW,248,13.0,13.0,36,0.00,CLR,,0.00,WeatherDisplay:10.37,2013-10-25 20:05:00,
2013-10-25 15:06:00,52.3,26.1,28.91,WSW,248,12.7,12.7,36,0.00,CLR,,0.00,WeatherDisplay:10.37,2013-10-25 20:06:00,
2013-10-25 15:07:00,52.3,26.1,28.91,SSW,202,5.9,5.9,36,0.00,CLR,,0.00,WeatherDisplay:10.37,2013-10-25 20:07:00,
2013-10-25 15:09:00,52.2,26.0,28.91,WNW,292,5.8,5.8,36,0.00,CLR,,0.00,WeatherDisplay:10.37,2013-10-25 20:09:00,
2013-10-25 15:10:00,52.2,26.0,28.91,East,90,10.4,10.4,36,0.00,CLR,,0.00,WeatherDisplay:10.37,2013-10-25 20:10:00,
2013-10-25 15:11:00,52.2,26.0,28.91,NNW,338,10.4,10.4,36,0.00,CLR,,0.00,WeatherDisplay:10.37,2013-10-25 20:11:00,
2013-10-25 15:12:00,52.3,26.1,28.91,West,270,6.9,6.9,36,0.00,CLR,,0.00,WeatherDisplay:10.37,2013-10-25 20:12:00,
2013-10-25 15:13:00,52.3,26.1,28.91,WSW,248,7.1,7.1,36,0.00,CLR,,0.00,WeatherDisplay:10.37,2013-10-25 20:13:00,
2013-10-25 15:15:00,52.9,26.6,28.91,NW,315,3.5,3.8,36,0.00,CLR,,0.00,WeatherDisplay:10.37,2013-10-25 20:15:00,
2013-10-25 15:16:00,52.9,26.6,28.91,WSW,248,5.8,5.8,36,0.00,CLR,,0.00,WeatherDisplay:10.37,2013-10-25 20:16:00,
2013-10-25 15:17:00,52.7,26.5,28.91,WSW,248,5.8,5.8,36,0.00,CLR,,0.00,WeatherDisplay:10.37,2013-10-25 20:17:00,
2013-10-25 15:18:00,52.5,25.6,28.91,WSW,248,7.4,7.4,35,0.00,CLR,,0.00,WeatherDisplay:10.37,2013-10-25 20:18:00,
2013-10-25 15:20:00,52.3,25.5,28.91,SW,225,10.0,10.0,35,0.00,CLR,,0.00,WeatherDisplay:10.37,2013-10-25 20:20:00,
2013-10-25 15:21:00,52.3,24.8,28.91,West,270,12.7,12.7,34,0.00,CLR,,0.00,WeatherDisplay:10.37,2013-10-25 20:21:00,
2013-10-25 15:22:00,52.2,24.6,28.91,WSW,248,14.5,14.5,34,0.00,CLR,,0.00,WeatherDisplay:10.37,2013-10-25 20:22:00,
2013-10-25 15:24:00,52.0,24.4,28.91,SSW,202,15.0,15.0,34,0.00,CLR,,0.00,WeatherDisplay:10.37,2013-10-25 20:24:00,
2013-10-25 15:25:00,52.0,24.4,28.91,WSW,248,8.1,8.1,34,0.00,CLR,,0.00,WeatherDisplay:10.37,2013-10-25 20:25:00,
2013-10-25 15:26:00,52.0,24.4,28.91,West,270,6.9,6.9,34,0.00,CLR,,0.00,WeatherDisplay:10.37,2013-10-25 20:26:00,
2013-10-25 15:27:00,52.3,25.5,28.91,South,180,5.8,5.8,35,0.00,CLR,,0.00,WeatherDisplay:10.37,2013-10-25 20:27:00,
2013-10-25 15:29:00,52.5,24.9,28.91,SSW,202,4.6,4.6,34,0.00,CLR,,0.00,WeatherDisplay:10.37,2013-10-25 20:29:00,
2013-10-25 15:30:00,52.9,25.2,28.91,WNW,292,10.4,10.4,34,0.00,CLR,,0.00,WeatherDisplay:10.37,2013-10-25 20:30:00,
2013-10-25 15:31:00,52.9,25.2,28.91,SSW,202,10.9,10.9,34,0.00,CLR,,0.00,WeatherDisplay:10.37,2013-10-25 20:31:00,
2013-10-25 15:33:00,52.9,25.2,28.91,West,270,11.5,11.5,34,0.00,CLR,,0.00,WeatherDisplay:10.37,2013-10-25 20:33:00,
2013-10-25 15:35:00,52.5,24.9,28.91,SSE,158,5.8,5.8,34,0.00,CLR,,0.00,WeatherDisplay:10.37,2013-10-25 20:35:00,
2013-10-25 15:36:00,52.5,24.2,28.91,SE,135,9.2,9.2,33,0.00,CLR,,0.00,WeatherDisplay:10.37,2013-10-25 20:36:00,
2013-10-25 15:38:00,52.7,25.1,28.91,NE,45,6.9,6.9,34,0.00,CLR,,0.00,WeatherDisplay:10.37,2013-10-25 20:38:00,
2013-10-25 15:40:00,52.5,24.9,28.88,West,270,5.8,5.8,34,0.00,CLR,,0.00,WeatherDisplay:10.37,2013-10-25 20:40:00,
2013-10-25 15:41:00,52.5,24.9,28.88,SW,225,6.0,6.0,34,0.00,CLR,,0.00,WeatherDisplay:10.37,2013-10-25 20:41:00,
2013-10-25 15:42:00,52.5,24.9,28.88,NW,315,5.8,5.8,34,0.00,CLR,,0.00,WeatherDisplay:10.37,2013-10-25 20:42:00,
2013-10-25 15:43:00,52.5,24.9,28.88,SSW,202,9.7,9.7,34,0.00,CLR,,0.00,WeatherDisplay:10.37,2013-10-25 20:43:00,
2013-10-25 15:44:00,52.3,24.0,28.88,SW,225,6.9,6.9,33,0.00,CLR,,0.00,WeatherDisplay:10.37,2013-10-25 20:44:00,
2013-10-25 15:45:00,52.3,24.8,28.88,SSW,202,5.8,5.8,34,0.00,CLR,,0.00,WeatherDisplay:10.37,2013-10-25 20:45:00,
2013-10-25 15:46:00,52.3,24.8,28.88,North,0,3.5,3.6,34,0.00,CLR,,0.00,WeatherDisplay:10.37,2013-10-25 20:46:00,
2013-10-25 15:47:00,52.3,24.8,28.88,SSW,202,12.3,12.3,34,0.00,CLR,,0.00,WeatherDisplay:10.37,2013-10-25 20:47:00,
2013-10-25 15:48:00,52.2,24.6,28.88,NW,315,15.0,15.0,34,0.00,CLR,,0.00,WeatherDisplay:10.37,2013-10-25 20:48:00,
2013-10-25 15:49:00,52.2,24.6,28.88,SSW,202,4.6,4.6,34,0.00,CLR,,0.00,WeatherDisplay:10.37,2013-10-25 20:49:00,
2013-10-25 15:50:00,52.0,24.4,28.88,SW,225,8.1,8.1,34,0.00,CLR,,0.00,WeatherDisplay:10.37,2013-10-25 20:50:00,
2013-10-25 15:51:00,51.8,23.6,28.88,SSW,202,8.1,8.1,33,0.00,CLR,,0.00,WeatherDisplay:10.37,2013-10-25 20:51:00,
2013-10-25 15:52:00,51.8,24.3,28.88,WNW,292,7.6,7.6,34,0.00,CLR,,0.00,WeatherDisplay:10.37,2013-10-25 20:52:00,
2013-10-25 15:53:00,51.8,24.3,28.88,SSE,158,8.1,8.1,34,0.00,CLR,,0.00,WeatherDisplay:10.37,2013-10-25 20:53:00,
2013-10-25 15:54:00,51.6,24.1,28.88,SSE,158,10.4,10.4,34,0.00,CLR,,0.00,WeatherDisplay:10.37,2013-10-25 20:54:00,
2013-10-25 15:56:00,51.6,24.1,28.88,SSW,202,5.8,5.8,34,0.00,CLR,,0.00,WeatherDisplay:10.37,2013-10-25 20:56:00,
2013-10-25 15:57:00,51.6,24.1,28.88,SSW,202,5.8,5.8,34,0.00,CLR,,0.00,WeatherDisplay:10.37,2013-10-25 20:57:00,
2013-10-25 15:58:00,51.6,24.8,28.88,WNW,292,5.8,5.8,35,0.00,CLR,,0.00,WeatherDisplay:10.37,2013-10-25 20:58:00,
2013-10-25 16:00:00,51.6,24.8,28.88,SSW,202,8.1,8.1,35,0.00,CLR,,0.00,WeatherDisplay:10.37,2013-10-25 21:00:00,
2013-10-25 16:01:00,51.6,24.1,28.88,West,270,5.9,5.9,34,0.00,CLR,,0.00,WeatherDisplay:10.37,2013-10-25 21:01:00,
2013-10-25 16:02:00,51.6,24.1,28.88,SSW,202,9.2,9.2,34,0.00,CLR,,0.00,WeatherDisplay:10.37,2013-10-25 21:02:00,
2013-10-25 16:03:00,51.6,24.1,28.88,WSW,248,6.9,6.9,34,0.00,CLR,,0.00,WeatherDisplay:10.37,2013-10-25 21:03:00,
2013-10-25 16:06:00,51.3,23.8,28.88,SSW,202,13.8,13.8,34,0.00,CLR,,0.00,WeatherDisplay:10.37,2013-10-25 21:06:00,
2013-10-25 16:07:00,51.3,23.8,28.88,SSW,202,8.5,8.5,34,0.00,CLR,,0.00,WeatherDisplay:10.37,2013-10-25 21:07:00,
2013-10-25 16:08:00,51.4,24.7,28.88,North,0,9.2,9.2,35,0.00,CLR,,0.00,WeatherDisplay:10.37,2013-10-25 21:08:00,
2013-10-25 16:09:00,51.4,25.3,28.88,SE,135,12.7,12.7,36,0.00,CLR,,0.00,WeatherDisplay:10.37,2013-10-25 21:09:00,
2013-10-25 16:11:00,51.3,23.8,28.85,SSE,158,17.3,17.3,34,0.00,CLR,,0.00,WeatherDisplay:10.37,2013-10-25 21:11:00,
2013-10-25 16:12:00,51.3,23.8,28.85,SSW,202,5.8,5.8,34,0.00,CLR,,0.00,WeatherDisplay:10.37,2013-10-25 21:12:00,
2013-10-25 16:13:00,51.4,24.7,28.85,East,90,7.4,7.4,35,0.00,CLR,,0.00,WeatherDisplay:10.37,2013-10-25 21:13:00,
2013-10-25 16:14:00,51.4,24.7,28.85,West,270,9.2,9.2,35,0.00,CLR,,0.00,WeatherDisplay:10.37,2013-10-25 21:14:00,
2013-10-25 16:16:00,51.6,24.8,28.85,NNW,338,11.5,11.5,35,0.00,CLR,,0.00,WeatherDisplay:10.37,2013-10-25 21:16:00,
2013-10-25 16:17:00,51.6,24.8,28.85,West,270,8.1,8.1,35,0.00,CLR,,0.00,WeatherDisplay:10.37,2013-10-25 21:17:00,
2013-10-25 16:18:00,51.6,24.8,28.85,West,270,4.6,4.6,35,0.00,CLR,,0.00,WeatherDisplay:10.37,2013-10-25 21:18:00,
2013-10-25 16:19:00,51.4,24.7,28.85,SW,225,5.8,5.8,35,0.00,CLR,,0.00,WeatherDisplay:10.37,2013-10-25 21:19:00,
2013-10-25 16:20:00,51.4,25.3,28.85,SE,135,6.2,6.2,36,0.00,CLR,,0.00,WeatherDisplay:10.37,2013-10-25 21:20:00,
2013-10-25 16:22:00,51.3,24.5,28.85,SSW,202,10.4,10.4,35,0.00,CLR,,0.00,WeatherDisplay:10.37,2013-10-25 21:22:00,
2013-10-25 16:23:00,51.1,24.3,28.85,SSW,202,6.9,6.9,35,0.00,CLR,,0.00,WeatherDisplay:10.37,2013-10-25 21:23:00,
2013-10-25 16:25:00,50.9,24.9,28.82,SSW,202,5.8,5.8,36,0.00,CLR,,0.00,WeatherDisplay:10.37,2013-10-25 21:25:00,
2013-10-25 16:27:00,50.9,24.2,28.82,SSW,202,9.4,9.4,35,0.00,CLR,,0.00,WeatherDisplay:10.37,2013-10-25 21:27:00,
2013-10-25 16:28:00,50.7,24.7,28.82,NW,315,9.2,9.2,36,0.00,CLR,,0.00,WeatherDisplay:10.37,2013-10-25 21:28:00,
2013-10-25 16:30:00,50.7,24.7,28.82,SW,232,3.0,9.0,36,0.00,CLR,,0.00,WeatherDisplay:10.37,2013-10-25 21:30:00,
2013-10-25 16:32:00,50.5,24.5,28.82,SSW,202,5.8,5.8,36,0.00,CLR,,0.00,WeatherDisplay:10.37,2013-10-25 21:32:00,
2013-10-25 16:33:00,50.5,24.5,28.82,North,0,5.8,5.8,36,0.00,CLR,,0.00,WeatherDisplay:10.37,2013-10-25 21:33:00,
2013-10-25 16:34:00,50.5,24.5,28.82,WSW,248,7.1,7.1,36,0.00,CLR,,0.00,WeatherDisplay:10.37,2013-10-25 21:34:00,
2013-10-25 16:36:00,50.4,24.4,28.82,SW,225,5.8,5.8,36,0.00,CLR,,0.00,WeatherDisplay:10.37,2013-10-25 21:36:00,
2013-10-25 16:37:00,50.5,24.5,28.82,SSE,158,8.1,8.1,36,0.00,CLR,,0.00,WeatherDisplay:10.37,2013-10-25 21:37:00,
2013-10-25 16:38:00,50.5,24.5,28.82,SSE,158,8.1,8.1,36,0.00,CLR,,0.00,WeatherDisplay:10.37,2013-10-25 21:38:00,
2013-10-25 16:39:00,50.5,24.5,28.82,West,270,6.9,6.9,36,0.00,CLR,,0.00,WeatherDisplay:10.37,2013-10-25 21:39:00,
2013-10-25 16:41:00,50.5,24.5,28.85,SSW,202,9.2,9.2,36,0.00,CLR,,0.00,WeatherDisplay:10.37,2013-10-25 21:41:00,
2013-10-25 16:42:00,50.5,24.5,28.85,SSW,202,6.9,6.9,36,0.00,CLR,,0.00,WeatherDisplay:10.37,2013-10-25 21:42:00,
2013-10-25 16:43:00,50.5,24.5,28.85,SW,225,9.0,9.0,36,0.00,CLR,,0.00,WeatherDisplay:10.37,2013-10-25 21:43:00,
2013-10-25 16:44:00,50.5,24.5,28.85,SSW,202,9.2,9.2,36,0.00,CLR,,0.00,WeatherDisplay:10.37,2013-10-25 21:44:00,
2013-10-25 16:47:00,50.5,24.5,28.85,SW,225,9.2,9.2,36,0.00,CLR,,0.00,WeatherDisplay:10.37,2013-10-25 21:47:00,
2013-10-25 16:48:00,50.5,23.9,28.85,WSW,248,9.2,9.2,35,0.00,CLR,,0.00,WeatherDisplay:10.37,2013-10-25 21:48:00,
2013-10-25 16:49:00,50.5,24.5,28.85,South,180,5.8,5.8,36,0.00,CLR,,0.00,WeatherDisplay:10.37,2013-10-25 21:49:00,
2013-10-25 16:50:00,50.5,24.5,28.85,South,180,8.1,8.1,36,0.00,CLR,,0.00,WeatherDisplay:10.37,2013-10-25 21:50:00,
2013-10-25 16:52:00,50.4,24.4,28.85,SW,225,10.4,10.4,36,0.00,CLR,,0.00,WeatherDisplay:10.37,2013-10-25 21:52:00,
2013-10-25 16:53:00,50.5,23.9,28.85,SSW,202,10.4,10.4,35,0.00,CLR,,0.00,WeatherDisplay:10.37,2013-10-25 21:53:00,
2013-10-25 16:54:00,50.5,23.9,28.85,WSW,248,8.1,8.1,35,0.00,CLR,,0.00,WeatherDisplay:10.37,2013-10-25 21:54:00,
2013-10-25 16:55:00,50.5,23.9,28.76,WSW,248,8.1,8.1,35,0.00,CLR,,0.00,WeatherDisplay:10.37,2013-10-25 21:55:00,
2013-10-25 16:57:00,50.5,23.9,28.76,SW,225,8.1,8.1,35,0.00,CLR,,0.00,WeatherDisplay:10.37,2013-10-25 21:57:00,
2013-10-25 16:58:00,50.7,24.0,28.76,SW,225,5.8,5.8,35,0.00,CLR,,0.00,WeatherDisplay:10.37,2013-10-25 21:58:00,
2013-10-25 16:59:00,50.7,24.7,28.76,WSW,248,5.8,5.8,36,0.00,CLR,,0.00,WeatherDisplay:10.37,2013-10-25 21:59:00,
2013-10-25 17:01:00,50.9,24.9,28.76,SE,135,10.2,10.2,36,0.00,CLR,,0.00,WeatherDisplay:10.37,2013-10-25 22:01:00,
2013-10-25 17:03:00,50.9,24.2,28.76,SSW,202,10.4,10.4,35,0.00,CLR,,0.00,WeatherDisplay:10.37,2013-10-25 22:03:00,
2013-10-25 17:04:00,51.1,24.3,28.76,SSW,202,12.7,12.7,35,0.00,CLR,,0.00,WeatherDisplay:10.37,2013-10-25 22:04:00,
2013-10-25 17:06:00,51.1,24.3,28.76,SSE,158,7.6,7.6,35,0.00,CLR,,0.00,WeatherDisplay:10.37,2013-10-25 22:06:00,
2013-10-25 17:08:00,51.1,24.3,28.76,West,270,8.1,8.1,35,0.00,CLR,,0.00,WeatherDisplay:10.37,2013-10-25 22:08:00,
2013-10-25 17:09:00,51.3,24.5,28.76,SW,225,8.1,8.1,35,0.00,CLR,,0.00,WeatherDisplay:10.37,2013-10-25 22:09:00,
2013-10-25 17:10:00,51.3,24.5,28.76,SSW,202,8.1,8.1,35,0.00,CLR,,0.00,WeatherDisplay:10.37,2013-10-25 22:10:00,
2013-10-25 17:12:00,51.3,25.2,28.76,West,270,9.2,9.2,36,0.00,CLR,,0.00,WeatherDisplay:10.37,2013-10-25 22:12:00,
2013-10-25 17:13:00,50.9,24.2,28.76,East,90,8.1,8.1,35,0.00,CLR,,0.00,WeatherDisplay:10.37,2013-10-25 22:13:00,
2013-10-25 17:14:00,50.9,24.2,28.76,SW,225,7.1,7.1,35,0.00,CLR,,0.00,WeatherDisplay:10.37,2013-10-25 22:14:00,
2013-10-25 17:16:00,50.9,24.9,28.76,WSW,248,6.9,6.9,36,0.00,CLR,,0.00,WeatherDisplay:10.37,2013-10-25 22:16:00,
2013-10-25 17:17:00,50.7,24.0,28.76,SSW,202,8.1,8.1,35,0.00,CLR,,0.00,WeatherDisplay:10.37,2013-10-25 22:17:00,
2013-10-25 17:18:00,50.5,23.9,28.76,SSW,202,12.7,12.7,35,0.00,CLR,,0.00,WeatherDisplay:10.37,2013-10-25 22:18:00,
2013-10-25 17:19:00,50.5,23.9,28.76,South,180,6.9,6.9,35,0.00,CLR,,0.00,WeatherDisplay:10.37,2013-10-25 22:19:00,
2013-10-25 17:21:00,50.5,24.5,28.76,WSW,248,4.7,4.7,36,0.00,CLR,,0.00,WeatherDisplay:10.37,2013-10-25 22:21:00,
2013-10-25 17:22:00,50.4,24.4,28.76,NW,315,5.8,5.8,36,0.00,CLR,,0.00,WeatherDisplay:10.37,2013-10-25 22:22:00,
2013-10-25 17:23:00,50.2,24.2,28.76,South,180,8.1,8.1,36,0.00,CLR,,0.00,WeatherDisplay:10.37,2013-10-25 22:23:00,
2013-10-25 17:24:00,50.2,24.2,28.76,SSW,202,8.1,8.1,36,0.00,CLR,,0.00,WeatherDisplay:10.37,2013-10-25 22:24:00,
2013-10-25 17:25:00,50.2,24.2,28.79,West,270,5.8,5.8,36,0.00,CLR,,0.00,WeatherDisplay:10.37,2013-10-25 22:25:00,
2013-10-25 17:26:00,50.2,24.2,28.79,WSW,248,10.7,10.7,36,0.00,CLR,,0.00,WeatherDisplay:10.37,2013-10-25 22:26:00,
2013-10-25 17:27:00,50.0,24.1,28.79,SW,225,10.4,10.4,36,0.00,CLR,,0.00,WeatherDisplay:10.37,2013-10-25 22:27:00,
2013-10-25 17:29:00,50.0,24.1,28.79,South,180,8.1,8.1,36,0.00,CLR,,0.00,WeatherDisplay:10.37,2013-10-25 22:29:00,
2013-10-25 17:30:00,50.0,24.1,28.79,South,180,8.1,8.1,36,0.00,CLR,,0.00,WeatherDisplay:10.37,2013-10-25 22:30:00,
2013-10-25 17:31:00,49.8,23.9,28.79,SSE,158,5.8,5.8,36,0.00,CLR,,0.00,WeatherDisplay:10.37,2013-10-25 22:31:00,
2013-10-25 17:33:00,49.8,23.9,28.79,SSW,202,4.6,4.6,36,0.00,CLR,,0.00,WeatherDisplay:10.37,2013-10-25 22:33:00,
2013-10-25 17:34:00,49.8,23.9,28.79,WSW,248,6.0,6.0,36,0.00,CLR,,0.00,WeatherDisplay:10.37,2013-10-25 22:34:00,
2013-10-25 17:35:00,49.8,23.9,28.79,SSW,202,6.9,6.9,36,0.00,CLR,,0.00,WeatherDisplay:10.37,2013-10-25 22:35:00,
2013-10-25 17:36:00,49.8,24.6,28.79,SSW,202,5.8,5.8,37,0.00,CLR,,0.00,WeatherDisplay:10.37,2013-10-25 22:36:00,
2013-10-25 17:37:00,49.8,24.6,28.79,SE,135,6.2,6.2,37,0.00,CLR,,0.00,WeatherDisplay:10.37,2013-10-25 22:37:00,
2013-10-25 17:38:00,49.8,24.6,28.79,South,180,6.9,6.9,37,0.00,CLR,,0.00,WeatherDisplay:10.37,2013-10-25 22:38:00,
2013-10-25 17:39:00,49.8,24.6,28.79,SW,225,6.9,6.9,37,0.00,CLR,,0.00,WeatherDisplay:10.37,2013-10-25 22:39:00,
2013-10-25 17:40:00,49.8,24.6,28.79,SSW,202,5.8,5.8,37,0.00,CLR,,0.00,WeatherDisplay:10.37,2013-10-25 22:40:00,
2013-10-25 17:41:00,49.8,24.6,28.79,South,180,5.8,5.8,37,0.00,CLR,,0.00,WeatherDisplay:10.37,2013-10-25 22:41:00,
2013-10-25 17:43:00,49.8,24.6,28.79,WSW,248,6.9,6.9,37,0.00,CLR,,0.00,WeatherDisplay:10.37,2013-10-25 22:43:00,
2013-10-25 17:44:00,49.6,24.4,28.79,WSW,248,5.8,5.8,37,0.00,CLR,,0.00,WeatherDisplay:10.37,2013-10-25 22:44:00,
2013-10-25 17:45:00,49.6,24.4,28.79,South,180,4.6,4.6,37,0.00,CLR,,0.00,WeatherDisplay:10.37,2013-10-25 22:45:00,
2013-10-25 17:46:00,49.5,24.2,28.79,NW,315,6.9,6.9,37,0.00,CLR,,0.00,WeatherDisplay:10.37,2013-10-25 22:46:00,
2013-10-25 17:48:00,49.5,24.2,28.79,SSW,202,8.1,8.1,37,0.00,CLR,,0.00,WeatherDisplay:10.37,2013-10-25 22:48:00,
2013-10-25 17:49:00,49.5,24.2,28.79,SW,225,5.8,5.8,37,0.00,CLR,,0.00,WeatherDisplay:10.37,2013-10-25 22:49:00,
2013-10-25 17:50:00,49.5,24.2,28.79,SSW,202,10.4,10.4,37,0.00,CLR,,0.00,WeatherDisplay:10.37,2013-10-25 22:50:00,
2013-10-25 17:51:00,49.5,24.2,28.79,WNW,292,9.7,9.7,37,0.00,CLR,,0.00,WeatherDisplay:10.37,2013-10-25 22:51:00,
2013-10-25 17:53:00,49.5,24.2,28.79,SW,225,9.2,9.2,37,0.00,CLR,,0.00,WeatherDisplay:10.37,2013-10-25 22:53:00,
2013-10-25 17:54:00,49.3,24.1,28.79,South,180,6.9,6.9,37,0.00,CLR,,0.00,WeatherDisplay:10.37,2013-10-25 22:54:00,
2013-10-25 17:55:00,49.3,24.1,28.79,SSE,158,6.9,6.9,37,0.00,CLR,,0.00,WeatherDisplay:10.37,2013-10-25 22:55:00,
2013-10-25 17:57:00,49.1,23.9,28.79,West,270,5.8,5.8,37,0.00,CLR,,0.00,WeatherDisplay:10.37,2013-10-25 22:57:00,
2013-10-25 17:59:00,49.1,23.9,28.79,West,270,3.5,3.5,37,0.00,CLR,,0.00,WeatherDisplay:10.37,2013-10-25 22:59:00,
2013-10-25 18:00:00,48.9,23.8,28.79,ESE,112,6.9,6.9,37,0.00,CLR,,0.00,WeatherDisplay:10.37,2013-10-25 23:00:00,
2013-10-25 18:01:00,48.9,23.8,28.79,North,0,6.9,6.9,37,0.00,CLR,,0.00,WeatherDisplay:10.37,2013-10-25 23:01:00,
2013-10-25 18:02:00,48.9,23.8,28.79,NNW,338,6.9,6.9,37,0.00,CLR,,0.00,WeatherDisplay:10.37,2013-10-25 23:02:00,
2013-10-25 18:04:00,48.7,23.6,28.79,SSW,202,3.5,3.5,37,0.00,CLR,,0.00,WeatherDisplay:10.37,2013-10-25 23:04:00,
2013-10-25 18:05:00,48.7,23.6,28.79,SSE,158,8.1,8.1,37,0.00,CLR,,0.00,WeatherDisplay:10.37,2013-10-25 23:05:00,
2013-10-25 18:06:00,48.7,23.6,28.79,WSW,248,8.1,8.1,37,0.00,CLR,,0.00,WeatherDisplay:10.37,2013-10-25 23:06:00,
2013-10-25 18:07:00,48.7,23.6,28.79,West,270,4.6,4.6,37,0.00,CLR,,0.00,WeatherDisplay:10.37,2013-10-25 23:07:00,
2013-10-25 18:09:00,48.6,23.4,28.79,SW,225,5.8,6.0,37,0.00,CLR,,0.00,WeatherDisplay:10.37,2013-10-25 23:09:00,
2013-10-25 18:11:00,48.6,23.4,28.76,South,180,6.2,6.2,37,0.00,CLR,,0.00,WeatherDisplay:10.37,2013-10-25 23:11:00,
2013-10-25 18:12:00,48.6,23.4,28.76,SW,225,5.8,5.8,37,0.00,CLR,,0.00,WeatherDisplay:10.37,2013-10-25 23:12:00,
2013-10-25 18:14:00,48.6,23.4,28.76,SW,225,6.2,6.2,37,0.00,CLR,,0.00,WeatherDisplay:10.37,2013-10-25 23:14:00,
2013-10-25 18:15:00,48.6,23.4,28.76,North,0,5.8,5.8,37,0.00,CLR,,0.00,WeatherDisplay:10.37,2013-10-25 23:15:00,
2013-10-25 18:16:00,48.4,23.3,28.76,SW,225,5.8,5.8,37,0.00,CLR,,0.00,WeatherDisplay:10.37,2013-10-25 23:16:00,
2013-10-25 18:17:00,48.4,23.3,28.76,WNW,292,8.1,8.1,37,0.00,CLR,,0.00,WeatherDisplay:10.37,2013-10-25 23:17:00,
2013-10-25 18:20:00,48.4,23.3,28.76,South,180,5.8,5.8,37,0.00,CLR,,0.00,WeatherDisplay:10.37,2013-10-25 23:20:00,
2013-10-25 18:21:00,48.2,23.1,28.76,SSW,202,9.2,9.2,37,0.00,CLR,,0.00,WeatherDisplay:10.37,2013-10-25 23:21:00,
2013-10-25 18:22:00,48.2,23.1,28.76,West,270,9.2,9.2,37,0.00,CLR,,0.00,WeatherDisplay:10.37,2013-10-25 23:22:00,
2013-10-25 18:25:00,48.2,23.1,28.76,NNE,22,6.9,6.9,37,0.00,CLR,,0.00,WeatherDisplay:10.37,2013-10-25 23:25:00,
2013-10-25 18:26:00,48.2,23.1,28.76,West,270,8.1,8.1,37,0.00,CLR,,0.00,WeatherDisplay:10.37,2013-10-25 23:26:00,
2013-10-25 18:27:00,48.2,23.1,28.76,WSW,248,5.8,5.8,37,0.00,CLR,,0.00,WeatherDisplay:10.37,2013-10-25 23:27:00,
2013-10-25 18:28:00,48.2,23.1,28.76,SW,225,5.8,5.8,37,0.00,CLR,,0.00,WeatherDisplay:10.37,2013-10-25 23:28:00,
2013-10-25 18:30:00,48.0,23.6,28.76,SW,225,6.9,6.9,38,0.00,CLR,,0.00,WeatherDisplay:10.37,2013-10-25 23:30:00,
2013-10-25 18:31:00,48.0,23.6,28.76,South,180,5.8,5.8,38,0.00,CLR,,0.00,WeatherDisplay:10.37,2013-10-25 23:31:00,
2013-10-25 18:32:00,48.0,23.6,28.76,WSW,248,5.8,5.8,38,0.00,CLR,,0.00,WeatherDisplay:10.37,2013-10-25 23:32:00,
2013-10-25 18:33:00,48.2,23.1,28.76,SSW,202,5.8,5.8,37,0.00,CLR,,0.00,WeatherDisplay:10.37,2013-10-25 23:33:00,
2013-10-25 18:34:00,48.2,23.1,28.76,SSE,158,5.8,5.8,37,0.00,CLR,,0.00,WeatherDisplay:10.37,2013-10-25 23:34:00,
2013-10-25 18:35:00,48.0,23.6,28.76,NW,315,5.8,5.8,38,0.00,CLR,,0.00,WeatherDisplay:10.37,2013-10-25 23:35:00,
2013-10-25 18:36:00,48.2,23.1,28.76,WSW,248,8.1,8.1,37,0.00,CLR,,0.00,WeatherDisplay:10.37,2013-10-25 23:36:00,
2013-10-25 18:37:00,48.2,23.1,28.76,SSE,158,8.1,8.1,37,0.00,CLR,,0.00,WeatherDisplay:10.37,2013-10-25 23:37:00,
2013-10-25 18:39:00,48.2,23.1,28.76,South,180,5.8,6.7,37,0.00,CLR,,0.00,WeatherDisplay:10.37,2013-10-25 23:39:00,
2013-10-25 18:40:00,48.2,23.1,28.73,WSW,248,5.8,5.8,37,0.00,CLR,,0.00,WeatherDisplay:10.37,2013-10-25 23:40:00,
2013-10-25 18:41:00,48.2,23.1,28.73,WSW,248,8.1,8.1,37,0.00,CLR,,0.00,WeatherDisplay:10.37,2013-10-25 23:41:00,
2013-10-25 18:42:00,48.2,23.1,28.73,West,270,8.1,8.1,37,0.00,CLR,,0.00,WeatherDisplay:10.37,2013-10-25 23:42:00,
2013-10-25 18:44:00,48.2,23.1,28.73,WNW,292,5.8,5.8,37,0.00,CLR,,0.00,WeatherDisplay:10.37,2013-10-25 23:44:00,
2013-10-25 18:46:00,48.0,23.6,28.73,West,270,4.6,4.6,38,0.00,CLR,,0.00,WeatherDisplay:10.37,2013-10-25 23:46:00,
2013-10-25 18:47:00,48.0,23.6,28.73,SE,135,4.6,4.6,38,0.00,CLR,,0.00,WeatherDisplay:10.37,2013-10-25 23:47:00,
2013-10-25 18:49:00,48.4,23.3,28.73,North,0,8.1,8.1,37,0.00,CLR,,0.00,WeatherDisplay:10.37,2013-10-25 23:49:00,
2013-10-25 18:51:00,48.4,23.3,28.73,SSW,202,6.9,6.9,37,0.00,CLR,,0.00,WeatherDisplay:10.37,2013-10-25 23:51:00,
2013-10-25 18:52:00,48.4,23.3,28.73,SE,135,6.9,6.9,37,0.00,CLR,,0.00,WeatherDisplay:10.37,2013-10-25 23:52:00,
2013-10-25 18:55:00,48.4,23.3,28.73,South,180,6.4,6.4,37,0.00,CLR,,0.00,WeatherDisplay:10.37,2013-10-25 23:55:00,
2013-10-25 18:57:00,48.4,23.3,28.73,WNW,292,8.1,8.1,37,0.00,CLR,,0.00,WeatherDisplay:10.37,2013-10-25 23:57:00,
2013-10-25 18:58:00,48.4,23.3,28.73,West,270,8.1,8.1,37,0.00,CLR,,0.00,WeatherDisplay:10.37,2013-10-25 23:58:00,
2013-10-25 19:01:00,48.4,23.3,28.73,SSW,202,8.1,8.1,37,0.00,CLR,,0.00,WeatherDisplay:10.37,2013-10-26 00:01:00,
2013-10-25 19:02:00,48.4,23.3,28.73,WSW,248,10.4,10.4,37,0.00,CLR,,0.00,WeatherDisplay:10.37,2013-10-26 00:02:00,
2013-10-25 19:03:00,48.4,23.3,28.73,SE,135,10.4,10.4,37,0.00,CLR,,0.00,WeatherDisplay:10.37,2013-10-26 00:03:00,
2013-10-25 19:06:00,48.4,23.3,28.73,WNW,292,5.8,5.8,37,0.00,CLR,,0.00,WeatherDisplay:10.37,2013-10-26 00:06:00,
2013-10-25 19:07:00,48.4,23.3,28.73,SSW,202,8.1,8.1,37,0.00,CLR,,0.00,WeatherDisplay:10.37,2013-10-26 00:07:00,
2013-10-25 19:08:00,48.4,23.3,28.73,West,270,8.1,8.1,37,0.00,CLR,,0.00,WeatherDisplay:10.37,2013-10-26 00:08:00,
2013-10-25 19:10:00,48.6,23.4,28.73,SSW,202,9.2,9.2,37,0.00,CLR,,0.00,WeatherDisplay:10.37,2013-10-26 00:10:00,
2013-10-25 19:11:00,48.6,23.4,28.73,South,180,4.6,4.6,37,0.00,CLR,,0.00,WeatherDisplay:10.37,2013-10-26 00:11:00,
2013-10-25 19:12:00,48.6,23.4,28.73,WSW,248,4.6,4.6,37,0.00,CLR,,0.00,WeatherDisplay:10.37,2013-10-26 00:12:00,
2013-10-25 19:13:00,48.6,23.4,28.73,SSW,202,4.6,4.6,37,0.00,CLR,,0.00,WeatherDisplay:10.37,2013-10-26 00:13:00,
2013-10-25 19:16:00,48.6,23.4,28.73,SSW,202,6.9,6.9,37,0.00,CLR,,0.00,WeatherDisplay:10.37,2013-10-26 00:16:00,
2013-10-25 19:17:00,48.6,23.4,28.73,SSW,202,8.1,8.1,37,0.00,CLR,,0.00,WeatherDisplay:10.37,2013-10-26 00:17:00,
2013-10-25 19:18:00,48.6,23.4,28.73,SSW,202,8.1,8.1,37,0.00,CLR,,0.00,WeatherDisplay:10.37,2013-10-26 00:18:00,
2013-10-25 19:21:00,48.7,23.6,28.73,South,180,6.9,6.9,37,0.00,CLR,,0.00,WeatherDisplay:10.37,2013-10-26 00:21:00,
2013-10-25 19:22:00,48.7,23.6,28.73,West,270,7.1,7.1,37,0.00,CLR,,0.00,WeatherDisplay:10.37,2013-10-26 00:22:00,
2013-10-25 19:23:00,48.7,23.6,28.73,South,180,6.9,6.9,37,0.00,CLR,,0.00,WeatherDisplay:10.37,2013-10-26 00:23:00,
2013-10-25 19:26:00,48.7,23.6,28.70,SSW,202,10.4,10.4,37,0.00,CLR,,0.00,WeatherDisplay:10.37,2013-10-26 00:26:00,
2013-10-25 19:27:00,48.7,23.6,28.70,SW,225,10.4,10.4,37,0.00,CLR,,0.00,WeatherDisplay:10.37,2013-10-26 00:27:00,
2013-10-25 19:28:00,48.7,23.6,28.70,WSW,248,6.9,6.9,37,0.00,CLR,,0.00,WeatherDisplay:10.37,2013-10-26 00:28:00,
2013-10-25 19:29:00,48.7,23.6,28.70,SSW,202,9.2,9.2,37,0.00,CLR,,0.00,WeatherDisplay:10.37,2013-10-26 00:29:00,
2013-10-25 19:31:00,48.7,23.6,28.70,South,180,6.9,6.9,37,0.00,CLR,,0.00,WeatherDisplay:10.37,2013-10-26 00:31:00,
2013-10-25 19:32:00,48.7,23.6,28.70,SSW,202,9.2,9.2,37,0.00,CLR,,0.00,WeatherDisplay:10.37,2013-10-26 00:32:00,
2013-10-25 19:33:00,48.7,23.6,28.70,SSW,202,13.8,13.8,37,0.00,CLR,,0.00,WeatherDisplay:10.37,2013-10-26 00:33:00,
2013-10-25 19:35:00,48.7,23.6,28.70,South,180,8.1,8.1,37,0.00,CLR,,0.00,WeatherDisplay:10.37,2013-10-26 00:35:00,
2013-10-25 19:37:00,48.7,23.6,28.70,SSW,202,8.1,8.1,37,0.00,CLR,,0.00,WeatherDisplay:10.37,2013-10-26 00:37:00,
2013-10-25 19:38:00,48.7,23.6,28.70,West,270,8.1,8.1,37,0.00,CLR,,0.00,WeatherDisplay:10.37,2013-10-26 00:38:00,
2013-10-25 19:40:00,48.7,24.2,28.67,SW,225,5.8,5.8,38,0.00,CLR,,0.00,WeatherDisplay:10.37,2013-10-26 00:40:00,
2013-10-25 19:42:00,48.7,24.2,28.67,SSW,202,6.9,6.9,38,0.00,CLR,,0.00,WeatherDisplay:10.37,2013-10-26 00:42:00,
2013-10-25 19:43:00,48.7,24.2,28.67,West,270,7.1,7.1,38,0.00,CLR,,0.00,WeatherDisplay:10.37,2013-10-26 00:43:00,
2013-10-25 19:44:00,48.7,24.2,28.67,SSW,202,5.8,5.8,38,0.00,CLR,,0.00,WeatherDisplay:10.37,2013-10-26 00:44:00,
2013-10-25 19:45:00,48.9,24.4,28.67,South,180,8.1,8.1,38,0.00,CLR,,0.00,WeatherDisplay:10.37,2013-10-26 00:45:00,
2013-10-25 19:47:00,48.7,24.2,28.67,SW,225,5.8,5.8,38,0.00,CLR,,0.00,WeatherDisplay:10.37,2013-10-26 00:47:00,
2013-10-25 19:48:00,48.7,24.2,28.67,SW,225,6.9,6.9,38,0.00,CLR,,0.00,WeatherDisplay:10.37,2013-10-26 00:48:00,
2013-10-25 19:49:00,48.7,24.2,28.67,SW,225,6.9,6.9,38,0.00,CLR,,0.00,WeatherDisplay:10.37,2013-10-26 00:49:00,
2013-10-25 19:50:00,48.7,24.2,28.67,SSW,202,8.1,8.1,38,0.00,CLR,,0.00,WeatherDisplay:10.37,2013-10-26 00:50:00,
2013-10-25 19:53:00,48.7,24.2,28.67,SW,225,7.4,7.4,38,0.00,CLR,,0.00,WeatherDisplay:10.37,2013-10-26 00:53:00,
2013-10-25 19:54:00,48.7,24.2,28.67,East,90,8.1,8.1,38,0.00,CLR,,0.00,WeatherDisplay:10.37,2013-10-26 00:54:00,
2013-10-25 19:55:00,48.9,24.4,28.67,SSW,202,12.7,12.7,38,0.00,CLR,,0.00,WeatherDisplay:10.37,2013-10-26 00:55:00,
2013-10-25 19:58:00,48.9,24.4,28.67,South,180,9.8,9.8,38,0.00,CLR,,0.00,WeatherDisplay:10.37,2013-10-26 00:58:00,
2013-10-25 19:59:00,48.7,24.2,28.67,SSW,202,9.2,9.2,38,0.00,CLR,,0.00,WeatherDisplay:10.37,2013-10-26 00:59:00,
2013-10-25 20:01:00,48.7,24.2,28.67,West,270,3.5,3.5,38,0.00,CLR,,0.00,WeatherDisplay:10.37,2013-10-26 01:01:00,
2013-10-25 20:03:00,48.7,24.2,28.67,SSE,158,8.1,8.1,38,0.00,CLR,,0.00,WeatherDisplay:10.37,2013-10-26 01:03:00,
2013-10-25 20:04:00,48.7,24.2,28.67,NW,315,17.3,17.3,38,0.00,CLR,,0.00,WeatherDisplay:10.37,2013-10-26 01:04:00,
2013-10-25 20:05:00,48.7,24.2,28.67,NW,315,9.2,9.2,38,0.00,CLR,,0.00,WeatherDisplay:10.37,2013-10-26 01:05:00,
2013-10-25 20:06:00,48.7,24.2,28.67,NE,45,10.4,10.4,38,0.00,CLR,,0.00,WeatherDisplay:10.37,2013-10-26 01:06:00,
2013-10-25 20:09:00,48.7,24.2,28.67,SSW,202,12.7,12.7,38,0.00,CLR,,0.00,WeatherDisplay:10.37,2013-10-26 01:09:00,
2013-10-25 20:10:00,48.7,24.2,28.67,South,180,11.5,11.5,38,0.00,CLR,,0.00,WeatherDisplay:10.37,2013-10-26 01:10:00,
2013-10-25 20:11:00,48.7,24.2,28.67,South,180,9.2,9.2,38,0.00,CLR,,0.00,WeatherDisplay:10.37,2013-10-26 01:11:00,
2013-10-25 20:14:00,48.7,24.2,28.67,SW,225,6.9,6.9,38,0.00,CLR,,0.00,WeatherDisplay:10.37,2013-10-26 01:14:00,
2013-10-25 20:15:00,48.7,24.2,28.67,SW,225,6.9,6.9,38,0.00,CLR,,0.00,WeatherDisplay:10.37,2013-10-26 01:15:00,
2013-10-25 20:16:00,48.7,24.9,28.67,SSW,202,12.8,12.8,39,0.00,CLR,,0.00,WeatherDisplay:10.37,2013-10-26 01:16:00,
2013-10-25 20:17:00,48.7,24.9,28.67,SW,225,5.8,7.4,39,0.00,CLR,,0.00,WeatherDisplay:10.37,2013-10-26 01:17:00,
2013-10-25 20:19:00,48.7,24.9,28.67,SSW,202,6.9,6.9,39,0.00,CLR,,0.00,WeatherDisplay:10.37,2013-10-26 01:19:00,
2013-10-25 20:20:00,48.7,24.9,28.67,WSW,248,14.3,14.3,39,0.00,CLR,,0.00,WeatherDisplay:10.37,2013-10-26 01:20:00,
2013-10-25 20:21:00,48.9,25.0,28.67,North,0,17.3,17.3,39,0.00,CLR,,0.00,WeatherDisplay:10.37,2013-10-26 01:21:00,
2013-10-25 20:22:00,48.9,25.0,28.67,WNW,292,10.4,10.4,39,0.00,CLR,,0.00,WeatherDisplay:10.37,2013-10-26 01:22:00,
2013-10-25 20:24:00,48.7,24.9,28.64,West,270,10.4,10.4,39,0.00,CLR,,0.00,WeatherDisplay:10.37,2013-10-26 01:24:00,
2013-10-25 20:25:00,48.7,24.9,28.64,WNW,292,10.4,10.4,39,0.00,CLR,,0.00,WeatherDisplay:10.37,2013-10-26 01:25:00,
2013-10-25 20:26:00,48.9,25.0,28.64,WSW,248,9.2,9.2,39,0.00,CLR,,0.00,WeatherDisplay:10.37,2013-10-26 01:26:00,
2013-10-25 20:27:00,48.9,25.0,28.64,WSW,248,9.2,9.2,39,0.00,CLR,,0.00,WeatherDisplay:10.37,2013-10-26 01:27:00,
2013-10-25 20:30:00,48.7,24.9,28.64,SSW,202,8.7,8.7,39,0.00,CLR,,0.00,WeatherDisplay:10.37,2013-10-26 01:30:00,
2013-10-25 20:32:00,48.9,25.0,28.64,SSW,202,12.7,12.7,39,0.00,CLR,,0.00,WeatherDisplay:10.37,2013-10-26 01:32:00,
2013-10-25 20:35:00,48.9,25.0,28.64,SSW,202,6.9,6.9,39,0.00,CLR,,0.00,WeatherDisplay:10.37,2013-10-26 01:35:00,
2013-10-25 20:36:00,48.7,24.9,28.64,NW,315,6.9,6.9,39,0.00,CLR,,0.00,WeatherDisplay:10.37,2013-10-26 01:36:00,
2013-10-25 20:37:00,48.9,25.0,28.64,SSW,202,7.4,7.4,39,0.00,CLR,,0.00,WeatherDisplay:10.37,2013-10-26 01:37:00,
2013-10-25 20:40:00,48.9,25.0,28.67,North,0,6.9,6.9,39,0.00,CLR,,0.00,WeatherDisplay:10.37,2013-10-26 01:40:00,
2013-10-25 20:41:00,48.9,25.0,28.67,SSW,202,6.9,6.9,39,0.00,CLR,,0.00,WeatherDisplay:10.37,2013-10-26 01:41:00,
2013-10-25 20:42:00,48.9,25.0,28.67,WSW,248,8.1,8.1,39,0.00,CLR,,0.00,WeatherDisplay:10.37,2013-10-26 01:42:00,
2013-10-25 20:45:00,48.7,24.9,28.67,WSW,248,6.9,6.9,39,0.00,CLR,,0.00,WeatherDisplay:10.37,2013-10-26 01:45:00,
2013-10-25 20:46:00,48.7,24.9,28.67,WSW,248,6.9,6.9,39,0.00,CLR,,0.00,WeatherDisplay:10.37,2013-10-26 01:46:00,
2013-10-25 20:47:00,48.7,24.9,28.67,SW,225,8.1,8.1,39,0.00,CLR,,0.00,WeatherDisplay:10.37,2013-10-26 01:47:00,
2013-10-25 20:48:00,48.7,24.9,28.67,SSW,202,13.8,13.8,39,0.00,CLR,,0.00,WeatherDisplay:10.37,2013-10-26 01:48:00,
2013-10-25 20:50:00,48.9,25.0,28.67,West,270,8.1,8.1,39,0.00,CLR,,0.00,WeatherDisplay:10.37,2013-10-26 01:50:00,
2013-10-25 20:51:00,48.9,25.0,28.67,ENE,68,8.1,8.1,39,0.00,CLR,,0.00,WeatherDisplay:10.37,2013-10-26 01:51:00,
2013-10-25 20:53:00,48.7,25.5,28.67,South,180,8.1,8.1,40,0.00,CLR,,0.00,WeatherDisplay:10.37,2013-10-26 01:53:00,
2013-10-25 20:55:00,48.7,25.5,28.64,SW,225,4.9,5.4,40,0.00,CLR,,0.00,WeatherDisplay:10.37,2013-10-26 01:55:00,
2013-10-25 20:56:00,48.9,25.6,28.64,WSW,248,10.4,10.4,40,0.00,CLR,,0.00,WeatherDisplay:10.37,2013-10-26 01:56:00,
2013-10-25 20:58:00,48.9,25.6,28.64,SSE,158,12.7,12.7,40,0.00,CLR,,0.00,WeatherDisplay:10.37,2013-10-26 01:58:00,
2013-10-25 20:59:00,48.9,25.6,28.64,SW,225,12.7,12.7,40,0.00,CLR,,0.00,WeatherDisplay:10.37,2013-10-26 01:59:00,
2013-10-25 21:00:00,48.9,25.6,28.64,South,180,5.9,5.9,40,0.00,CLR,,0.00,WeatherDisplay:10.37,2013-10-26 02:00:00,
2013-10-25 21:01:00,48.9,25.6,28.64,NE,45,9.2,9.2,40,0.00,CLR,,0.00,WeatherDisplay:10.37,2013-10-26 02:01:00,
2013-10-25 21:02:00,48.9,25.6,28.64,South,180,10.4,10.4,40,0.00,CLR,,0.00,WeatherDisplay:10.37,2013-10-26 02:02:00,
2013-10-25 21:04:00,49.1,25.8,28.64,WSW,248,9.2,9.2,40,0.00,CLR,,0.00,WeatherDisplay:10.37,2013-10-26 02:04:00,
2013-10-25 21:05:00,49.1,25.8,28.64,NW,315,12.7,12.7,40,0.00,CLR,,0.00,WeatherDisplay:10.37,2013-10-26 02:05:00,
2013-10-25 21:06:00,49.1,25.8,28.64,NW,315,12.7,12.7,40,0.00,CLR,,0.00,WeatherDisplay:10.37,2013-10-26 02:06:00,
2013-10-25 21:07:00,48.9,25.6,28.64,SSW,202,10.4,10.4,40,0.00,CLR,,0.00,WeatherDisplay:10.37,2013-10-26 02:07:00,
2013-10-25 21:08:00,48.9,25.6,28.64,South,180,9.2,9.2,40,0.00,CLR,,0.00,WeatherDisplay:10.37,2013-10-26 02:08:00,
2013-10-25 21:09:00,49.1,25.8,28.64,South,180,8.1,8.5,40,0.00,CLR,,0.00,WeatherDisplay:10.37,2013-10-26 02:09:00,
2013-10-25 21:11:00,48.9,25.6,28.64,SSW,202,8.1,8.1,40,0.00,CLR,,0.00,WeatherDisplay:10.37,2013-10-26 02:11:00,
2013-10-25 21:12:00,48.9,25.6,28.64,SSW,202,7.8,7.8,40,0.00,CLR,,0.00,WeatherDisplay:10.37,2013-10-26 02:12:00,
2013-10-25 21:13:00,48.9,25.6,28.64,SW,225,13.8,13.8,40,0.00,CLR,,0.00,WeatherDisplay:10.37,2013-10-26 02:13:00,
2013-10-25 21:14:00,48.9,25.6,28.64,SW,225,9.2,9.2,40,0.00,CLR,,0.00,WeatherDisplay:10.37,2013-10-26 02:14:00,
2013-10-25 21:16:00,48.9,25.6,28.64,SE,135,9.2,9.2,40,0.00,CLR,,0.00,WeatherDisplay:10.37,2013-10-26 02:16:00,
2013-10-25 21:18:00,48.9,25.6,28.64,South,180,12.7,12.7,40,0.00,CLR,,0.00,WeatherDisplay:10.37,2013-10-26 02:18:00,
2013-10-25 21:19:00,48.9,25.6,28.64,WSW,248,12.7,12.7,40,0.00,CLR,,0.00,WeatherDisplay:10.37,2013-10-26 02:19:00,
2013-10-25 21:21:00,48.9,25.6,28.64,SSW,202,10.4,10.4,40,0.00,CLR,,0.00,WeatherDisplay:10.37,2013-10-26 02:21:00,
2013-10-25 21:23:00,48.9,25.6,28.64,SSW,202,8.1,8.1,40,0.00,CLR,,0.00,WeatherDisplay:10.37,2013-10-26 02:23:00,
2013-10-25 21:24:00,48.9,25.6,28.67,South,180,9.2,9.2,40,0.00,CLR,,0.00,WeatherDisplay:10.37,2013-10-26 02:24:00,
2013-10-25 21:25:00,48.9,25.6,28.67,East,90,6.9,6.9,40,0.00,CLR,,0.00,WeatherDisplay:10.37,2013-10-26 02:25:00,
2013-10-25 21:26:00,48.9,25.6,28.67,NW,315,7.1,7.1,40,0.00,CLR,,0.00,WeatherDisplay:10.37,2013-10-26 02:26:00,
2013-10-25 21:28:00,49.1,25.8,28.67,WSW,248,10.4,10.4,40,0.00,CLR,,0.00,WeatherDisplay:10.37,2013-10-26 02:28:00,
2013-10-25 21:30:00,49.1,25.8,28.67,SW,234,7.0,12.0,40,0.00,CLR,,0.00,WeatherDisplay:10.37,2013-10-26 02:30:00,
2013-10-25 21:31:00,49.1,25.8,28.67,SW,225,9.2,9.2,40,0.00,CLR,,0.00,WeatherDisplay:10.37,2013-10-26 02:31:00,
2013-10-25 21:34:00,49.3,26.0,28.67,SSW,202,12.7,12.7,40,0.00,CLR,,0.00,WeatherDisplay:10.37,2013-10-26 02:34:00,
2013-10-25 21:35:00,49.1,25.8,28.67,SSE,158,10.4,10.4,40,0.00,CLR,,0.00,WeatherDisplay:10.37,2013-10-26 02:35:00,
2013-10-25 21:36:00,49.1,25.8,28.67,SE,135,10.4,10.4,40,0.00,CLR,,0.00,WeatherDisplay:10.37,2013-10-26 02:36:00,
2013-10-25 21:37:00,49.3,26.0,28.67,South,180,10.4,10.4,40,0.00,CLR,,0.00,WeatherDisplay:10.37,2013-10-26 02:37:00,
2013-10-25 21:39:00,49.3,26.0,28.67,WSW,248,8.1,8.1,40,0.00,CLR,,0.00,WeatherDisplay:10.37,2013-10-26 02:39:00,
2013-10-25 21:40:00,49.1,25.8,28.67,West,270,20.1,20.1,40,0.00,CLR,,0.00,WeatherDisplay:10.37,2013-10-26 02:40:00,
2013-10-25 21:41:00,49.1,25.8,28.67,West,270,20.7,20.7,40,0.00,CLR,,0.00,WeatherDisplay:10.37,2013-10-26 02:41:00,
2013-10-25 21:43:00,49.1,25.8,28.67,WSW,248,10.4,10.4,40,0.00,CLR,,0.00,WeatherDisplay:10.37,2013-10-26 02:43:00,
2013-10-25 21:45:00,49.1,25.8,28.67,South,180,12.7,12.7,40,0.00,CLR,,0.00,WeatherDisplay:10.37,2013-10-26 02:45:00,
2013-10-25 21:46:00,48.9,25.6,28.67,West,270,8.1,8.1,40,0.00,CLR,,0.00,WeatherDisplay:10.37,2013-10-26 02:46:00,
2013-10-25 21:47:00,48.9,25.6,28.67,SSW,202,10.5,10.5,40,0.00,CLR,,0.00,WeatherDisplay:10.37,2013-10-26 02:47:00,
2013-10-25 21:48:00,48.9,25.6,28.67,West,270,10.4,10.4,40,0.00,CLR,,0.00,WeatherDisplay:10.37,2013-10-26 02:48:00,
2013-10-25 21:50:00,49.0,25.7,28.67,SW,235,7.0,13.0,40,0.00,CLR,,0.00,WeatherDisplay:10.37,2013-10-26 02:50:00,
2013-10-25 21:51:00,48.9,25.6,28.67,WSW,248,9.2,9.2,40,0.00,CLR,,0.00,WeatherDisplay:10.37,2013-10-26 02:51:00,
2013-10-25 21:52:00,48.9,25.6,28.67,WSW,248,9.2,9.2,40,0.00,CLR,,0.00,WeatherDisplay:10.37,2013-10-26 02:52:00,
2013-10-25 21:53:00,48.9,25.6,28.67,West,270,9.2,9.2,40,0.00,CLR,,0.00,WeatherDisplay:10.37,2013-10-26 02:53:00,
2013-10-25 21:55:00,48.9,25.6,28.67,SSE,158,11.5,11.5,40,0.00,CLR,,0.00,WeatherDisplay:10.37,2013-10-26 02:55:00,
2013-10-25 21:56:00,48.7,25.5,28.67,WSW,248,8.1,8.1,40,0.00,CLR,,0.00,WeatherDisplay:10.37,2013-10-26 02:56:00,
2013-10-25 21:57:00,48.7,25.5,28.67,SSW,202,8.1,8.1,40,0.00,CLR,,0.00,WeatherDisplay:10.37,2013-10-26 02:57:00,
2013-10-25 21:58:00,48.7,26.1,28.67,SSW,202,6.4,6.4,41,0.00,CLR,,0.00,WeatherDisplay:10.37,2013-10-26 02:58:00,
2013-10-25 21:59:00,48.7,26.1,28.67,SE,135,6.9,6.9,41,0.00,CLR,,0.00,WeatherDisplay:10.37,2013-10-26 02:59:00,
2013-10-25 22:00:00,48.7,26.1,28.67,SSW,202,5.8,5.8,41,0.00,CLR,,0.00,WeatherDisplay:10.37,2013-10-26 03:00:00,
2013-10-25 22:02:00,48.9,25.6,28.67,NNE,22,15.0,15.0,40,0.00,CLR,,0.00,WeatherDisplay:10.37,2013-10-26 03:02:00,
2013-10-25 22:03:00,48.9,25.6,28.67,SSW,202,8.1,8.1,40,0.00,CLR,,0.00,WeatherDisplay:10.37,2013-10-26 03:03:00,
2013-10-25 22:04:00,49.1,25.8,28.67,SW,225,10.4,10.4,40,0.00,CLR,,0.00,WeatherDisplay:10.37,2013-10-26 03:04:00,
2013-10-25 22:06:00,49.1,25.8,28.67,West,270,12.7,12.7,40,0.00,CLR,,0.00,WeatherDisplay:10.37,2013-10-26 03:06:00,
2013-10-25 22:07:00,49.1,25.8,28.67,WSW,248,21.9,21.9,40,0.00,CLR,,0.00,WeatherDisplay:10.37,2013-10-26 03:07:00,
2013-10-25 22:08:00,49.1,25.8,28.67,SW,225,10.4,10.4,40,0.00,CLR,,0.00,WeatherDisplay:10.37,2013-10-26 03:08:00,
2013-10-25 22:09:00,49.1,25.8,28.67,WSW,248,9.2,9.2,40,0.00,CLR,,0.00,WeatherDisplay:10.37,2013-10-26 03:09:00,
2013-10-25 22:10:00,49.1,25.8,28.64,WSW,248,9.2,9.2,40,0.00,CLR,,0.00,WeatherDisplay:10.37,2013-10-26 03:10:00,
2013-10-25 22:11:00,49.1,25.8,28.64,SW,225,9.2,9.2,40,0.00,CLR,,0.00,WeatherDisplay:10.37,2013-10-26 03:11:00,
2013-10-25 22:12:00,49.1,25.8,28.64,SW,225,8.1,8.1,40,0.00,CLR,,0.00,WeatherDisplay:10.37,2013-10-26 03:12:00,
2013-10-25 22:14:00,49.1,25.8,28.64,West,270,11.5,11.5,40,0.00,CLR,,0.00,WeatherDisplay:10.37,2013-10-26 03:14:00,
2013-10-25 22:16:00,49.3,26.0,28.64,SSW,202,11.5,11.5,40,0.00,CLR,,0.00,WeatherDisplay:10.37,2013-10-26 03:16:00,
2013-10-25 22:17:00,49.3,26.0,28.64,NNW,338,11.5,11.5,40,0.00,CLR,,0.00,WeatherDisplay:10.37,2013-10-26 03:17:00,
2013-10-25 22:19:00,49.3,26.0,28.64,WSW,248,11.5,11.5,40,0.00,CLR,,0.00,WeatherDisplay:10.37,2013-10-26 03:19:00,
2013-10-25 22:21:00,49.3,26.0,28.64,SE,135,25.3,25.3,40,0.00,CLR,,0.00,WeatherDisplay:10.37,2013-10-26 03:21:00,
2013-10-25 22:22:00,49.3,26.0,28.64,SSW,202,5.8,10.0,40,0.00,CLR,,0.00,WeatherDisplay:10.37,2013-10-26 03:22:00,
2013-10-25 22:23:00,49.3,26.0,28.64,WSW,248,15.0,15.0,40,0.00,CLR,,0.00,WeatherDisplay:10.37,2013-10-26 03:23:00,
2013-10-25 22:24:00,49.3,26.0,28.64,SSE,158,9.8,9.8,40,0.00,CLR,,0.00,WeatherDisplay:10.37,2013-10-26 03:24:00,
2013-10-25 22:26:00,49.3,26.0,28.64,West,270,8.1,8.1,40,0.00,CLR,,0.00,WeatherDisplay:10.37,2013-10-26 03:26:00,
2013-10-25 22:27:00,49.3,26.0,28.64,NNW,338,11.5,11.5,40,0.00,CLR,,0.00,WeatherDisplay:10.37,2013-10-26 03:27:00,
2013-10-25 22:29:00,49.3,26.0,28.64,South,180,10.4,10.4,40,0.00,CLR,,0.00,WeatherDisplay:10.37,2013-10-26 03:29:00,
2013-10-25 22:30:00,49.3,26.0,28.64,South,180,13.2,13.2,40,0.00,CLR,,0.00,WeatherDisplay:10.37,2013-10-26 03:30:00,
2013-10-25 22:31:00,49.5,26.1,28.64,ESE,112,13.8,13.8,40,0.00,CLR,,0.00,WeatherDisplay:10.37,2013-10-26 03:31:00,
2013-10-25 22:33:00,49.3,26.0,28.64,WSW,248,9.2,9.2,40,0.00,CLR,,0.00,WeatherDisplay:10.37,2013-10-26 03:33:00,
2013-10-25 22:34:00,49.3,26.0,28.64,West,270,5.8,5.8,40,0.00,CLR,,0.00,WeatherDisplay:10.37,2013-10-26 03:34:00,
2013-10-25 22:35:00,49.3,26.0,28.64,West,270,9.2,9.2,40,0.00,CLR,,0.00,WeatherDisplay:10.37,2013-10-26 03:35:00,
2013-10-25 22:36:00,49.3,26.0,28.64,SW,225,17.3,17.3,40,0.00,CLR,,0.00,WeatherDisplay:10.37,2013-10-26 03:36:00,
2013-10-25 22:37:00,49.3,26.0,28.64,SE,135,15.0,15.0,40,0.00,CLR,,0.00,WeatherDisplay:10.37,2013-10-26 03:37:00,
2013-10-25 22:38:00,49.5,26.1,28.64,WSW,248,10.4,10.4,40,0.00,CLR,,0.00,WeatherDisplay:10.37,2013-10-26 03:38:00,
2013-10-25 22:39:00,49.5,26.1,28.64,West,270,16.1,16.1,40,0.00,CLR,,0.00,WeatherDisplay:10.37,2013-10-26 03:39:00,
2013-10-25 22:40:00,49.5,26.1,28.64,SW,225,11.5,11.5,40,0.00,CLR,,0.00,WeatherDisplay:10.37,2013-10-26 03:40:00,
2013-10-25 22:42:00,49.5,26.1,28.64,West,270,8.1,8.1,40,0.00,CLR,,0.00,WeatherDisplay:10.37,2013-10-26 03:42:00,
2013-10-25 22:43:00,49.5,26.1,28.64,West,270,10.4,10.4,40,0.00,CLR,,0.00,WeatherDisplay:10.37,2013-10-26 03:43:00,
2013-10-25 22:44:00,49.5,26.1,28.64,NW,315,5.8,5.8,40,0.00,CLR,,0.00,WeatherDisplay:10.37,2013-10-26 03:44:00,
2013-10-25 22:45:00,49.5,26.1,28.64,SW,225,8.1,8.1,40,0.00,CLR,,0.00,WeatherDisplay:10.37,2013-10-26 03:45:00,
2013-10-25 22:47:00,49.6,26.3,28.64,West,270,12.7,12.7,40,0.00,CLR,,0.00,WeatherDisplay:10.37,2013-10-26 03:47:00,
2013-10-25 22:48:00,49.5,26.1,28.64,North,0,17.3,17.3,40,0.00,CLR,,0.00,WeatherDisplay:10.37,2013-10-26 03:48:00,
2013-10-25 22:49:00,49.6,26.3,28.64,SSW,202,17.3,17.3,40,0.00,CLR,,0.00,WeatherDisplay:10.37,2013-10-26 03:49:00,
2013-10-25 22:50:00,49.6,26.3,28.64,SE,135,13.8,13.8,40,0.00,CLR,,0.00,WeatherDisplay:10.37,2013-10-26 03:50:00,
2013-10-25 22:51:00,49.6,26.3,28.64,WSW,248,13.8,13.8,40,0.00,CLR,,0.00,WeatherDisplay:10.37,2013-10-26 03:51:00,
2013-10-25 22:52:00,49.6,26.3,28.64,WSW,248,10.9,10.9,40,0.00,CLR,,0.00,WeatherDisplay:10.37,2013-10-26 03:52:00,
2013-10-25 22:54:00,49.8,26.4,28.64,West,270,15.0,15.0,40,0.00,CLR,,0.00,WeatherDisplay:10.37,2013-10-26 03:54:00,
2013-10-25 22:55:00,49.8,26.4,28.64,North,0,19.6,19.6,40,0.00,CLR,,0.00,WeatherDisplay:10.37,2013-10-26 03:55:00,
2013-10-25 22:56:00,49.8,26.4,28.64,West,270,19.6,19.6,40,0.00,CLR,,0.00,WeatherDisplay:10.37,2013-10-26 03:56:00,
2013-10-25 22:57:00,49.8,26.4,28.64,WNW,292,9.2,9.2,40,0.00,CLR,,0.00,WeatherDisplay:10.37,2013-10-26 03:57:00,
2013-10-25 22:58:00,49.8,26.4,28.64,SSW,202,9.2,9.2,40,0.00,CLR,,0.00,WeatherDisplay:10.37,2013-10-26 03:58:00,
2013-10-25 22:59:00,49.8,26.4,28.64,West,270,9.2,9.2,40,0.00,CLR,,0.00,WeatherDisplay:10.37,2013-10-26 03:59:00,
2013-10-25 23:00:00,49.8,26.4,28.64,WNW,292,11.5,11.5,40,0.00,CLR,,0.00,WeatherDisplay:10.37,2013-10-26 04:00:00,
2013-10-25 23:01:00,49.8,26.4,28.64,WSW,248,11.5,11.5,40,0.00,CLR,,0.00,WeatherDisplay:10.37,2013-10-26 04:01:00,
2013-10-25 23:06:00,49.8,26.4,28.64,South,180,13.8,13.8,40,0.00,CLR,,0.00,WeatherDisplay:10.37,2013-10-26 04:06:00,
2013-10-25 23:11:00,50.0,26.0,28.64,West,270,16.1,16.1,39,0.00,CLR,,0.00,WeatherDisplay:10.37,2013-10-26 04:11:00,
2013-10-25 23:12:00,50.0,26.0,28.64,SW,225,10.4,10.4,39,0.00,CLR,,0.00,WeatherDisplay:10.37,2013-10-26 04:12:00,
2013-10-25 23:16:00,50.2,26.1,28.64,West,270,8.1,8.1,39,0.00,CLR,,0.00,WeatherDisplay:10.37,2013-10-26 04:16:00,
2013-10-25 23:17:00,50.2,26.1,28.64,SE,135,13.8,13.8,39,0.00,CLR,,0.00,WeatherDisplay:10.37,2013-10-26 04:17:00,
2013-10-25 23:21:00,50.2,26.1,28.64,WSW,248,8.1,8.1,39,0.00,CLR,,0.00,WeatherDisplay:10.37,2013-10-26 04:21:00,
2013-10-25 23:22:00,50.2,26.1,28.64,West,270,10.4,10.4,39,0.00,CLR,,0.00,WeatherDisplay:10.37,2013-10-26 04:22:00,
2013-10-25 23:23:00,50.2,26.1,28.64,SSE,158,10.5,10.5,39,0.00,CLR,,0.00,WeatherDisplay:10.37,2013-10-26 04:23:00,
2013-10-25 23:26:00,50.2,26.1,28.61,WNW,292,9.2,9.2,39,0.00,CLR,,0.00,WeatherDisplay:10.37,2013-10-26 04:26:00,
2013-10-25 23:27:00,50.2,26.1,28.61,SW,225,10.4,10.4,39,0.00,CLR,,0.00,WeatherDisplay:10.37,2013-10-26 04:27:00,
2013-10-25 23:29:00,50.2,26.1,28.61,North,0,10.4,10.4,39,0.00,CLR,,0.00,WeatherDisplay:10.37,2013-10-26 04:29:00,
2013-10-25 23:31:00,50.4,26.3,28.61,WSW,248,11.5,11.5,39,0.00,CLR,,0.00,WeatherDisplay:10.37,2013-10-26 04:31:00,
2013-10-25 23:32:00,50.4,26.3,28.61,WSW,248,18.4,18.4,39,0.00,CLR,,0.00,WeatherDisplay:10.37,2013-10-26 04:32:00,
2013-10-25 23:33:00,50.4,26.3,28.61,SSW,202,8.1,8.1,39,0.00,CLR,,0.00,WeatherDisplay:10.37,2013-10-26 04:33:00,
2013-10-25 23:34:00,50.4,26.3,28.61,West,270,10.2,10.2,39,0.00,CLR,,0.00,WeatherDisplay:10.37,2013-10-26 04:34:00,
2013-10-25 23:36:00,50.2,26.1,28.61,SW,225,9.2,9.2,39,0.00,CLR,,0.00,WeatherDisplay:10.37,2013-10-26 04:36:00,
2013-10-25 23:37:00,50.2,26.1,28.61,WSW,248,9.4,9.4,39,0.00,CLR,,0.00,WeatherDisplay:10.37,2013-10-26 04:37:00,
2013-10-25 23:38:00,50.2,26.1,28.61,SSE,158,9.4,9.4,39,0.00,CLR,,0.00,WeatherDisplay:10.37,2013-10-26 04:38:00,
2013-10-25 23:40:00,50.2,26.1,28.61,West,270,9.2,9.2,39,0.00,CLR,,0.00,WeatherDisplay:10.37,2013-10-26 04:40:00,
2013-10-25 23:41:00,50.2,26.1,28.61,West,270,8.1,8.1,39,0.00,CLR,,0.00,WeatherDisplay:10.37,2013-10-26 04:41:00,
2013-10-25 23:43:00,50.2,26.1,28.61,SW,225,9.2,9.2,39,0.00,CLR,,0.00,WeatherDisplay:10.37,2013-10-26 04:43:00,
2013-10-25 23:45:00,50.4,26.3,28.61,SW,225,10.4,10.4,39,0.00,CLR,,0.00,WeatherDisplay:10.37,2013-10-26 04:45:00,
2013-10-25 23:46:00,50.4,26.3,28.61,WSW,248,8.1,8.1,39,0.00,CLR,,0.00,WeatherDisplay:10.37,2013-10-26 04:46:00,
2013-10-25 23:48:00,50.4,26.3,28.61,West,270,5.8,5.8,39,0.00,CLR,,0.00,WeatherDisplay:10.37,2013-10-26 04:48:00,
2013-10-25 23:49:00,50.4,26.3,28.61,South,180,7.4,7.4,39,0.00,CLR,,0.00,WeatherDisplay:10.37,2013-10-26 04:49:00,
2013-10-25 23:50:00,50.4,26.3,28.61,WSW,248,6.9,6.9,39,0.00,CLR,,0.00,WeatherDisplay:10.37,2013-10-26 04:50:00,
2013-10-25 23:52:00,50.4,26.3,28.61,SE,135,9.2,9.2,39,0.00,CLR,,0.00,WeatherDisplay:10.37,2013-10-26 04:52:00,
2013-10-25 23:53:00,50.4,26.3,28.61,SSW,202,6.9,6.9,39,0.00,CLR,,0.00,WeatherDisplay:10.37,2013-10-26 04:53:00,
2013-10-25 23:54:00,50.4,26.3,28.61,NW,315,11.5,11.5,39,0.00,CLR,,0.00,WeatherDisplay:10.37,2013-10-26 04:54:00,
2013-10-25 23:55:00,50.4,26.3,28.61,South,180,11.5,11.5,39,0.00,CLR,,0.00,WeatherDisplay:10.37,2013-10-26 04:55:00,
2013-10-25 23:57:00,50.4,26.3,28.61,ESE,112,8.5,8.5,39,0.00,CLR,,0.00,WeatherDisplay:10.37,2013-10-26 04:57:00,
2013-10-25 23:58:00,50.4,26.3,28.61,WSW,248,11.5,11.5,39,0.00,CLR,,0.00,WeatherDisplay:10.37,2013-10-26 04:58:00,
2013-10-25 23:59:00,50.4,26.3,28.61,WSW,248,12.7,12.7,39,0.00,CLR,,0.00,WeatherDisplay:10.37,2013-10-26 04:59:00,